<?xml version="1.0" encoding="UTF-8" standalone="no" ?>
<gpx xmlns="http://www.topografix.com/GPX/1/1" xmlns:xsi="http://www.w3.org/2001/XMLSchema-instance" xsi:schemaLocation="http://www.topografix.com/GPX/1/1 http://www.topografix.com/GPX/1/1/gpx.xsd" version="1.1" creator="VisuGPX - https://www.visugpx.com">
  <metadata>
    <name>2021-01-12 15:26:07</name>
  </metadata>
  <trk>
    <name><![CDATA[2021-01-12 15:26:07]]></name>
    <trkseg>
      <trkpt lat="44.37195" lon="4.80835">
        <ele>236.52</ele>
        <time>2021-01-12T08:11:09Z</time>
      </trkpt>
      <trkpt lat="44.3719" lon="4.80843">
        <ele>236.84</ele>
        <time>2021-01-12T08:11:27Z</time>
      </trkpt>
      <trkpt lat="44.37187" lon="4.8086">
        <ele>235.85</ele>
        <time>2021-01-12T08:11:46Z</time>
      </trkpt>
      <trkpt lat="44.37184" lon="4.80865">
        <ele>236.13</ele>
        <time>2021-01-12T08:11:55Z</time>
      </trkpt>
      <trkpt lat="44.37186" lon="4.80868">
        <ele>233.81</ele>
        <time>2021-01-12T08:12:05Z</time>
      </trkpt>
      <trkpt lat="44.37191" lon="4.80874">
        <ele>234.25</ele>
        <time>2021-01-12T08:12:10Z</time>
      </trkpt>
      <trkpt lat="44.37193" lon="4.80876">
        <ele>234.7</ele>
        <time>2021-01-12T08:12:13Z</time>
      </trkpt>
      <trkpt lat="44.37195" lon="4.80879">
        <ele>234.76</ele>
        <time>2021-01-12T08:12:15Z</time>
      </trkpt>
      <trkpt lat="44.372" lon="4.80887">
        <ele>234.48</ele>
        <time>2021-01-12T08:12:21Z</time>
      </trkpt>
      <trkpt lat="44.37213" lon="4.80904">
        <ele>234.3</ele>
        <time>2021-01-12T08:12:35Z</time>
      </trkpt>
      <trkpt lat="44.37226" lon="4.8092">
        <ele>234.34</ele>
        <time>2021-01-12T08:12:49Z</time>
      </trkpt>
      <trkpt lat="44.37228" lon="4.80922">
        <ele>234.22</ele>
        <time>2021-01-12T08:12:51Z</time>
      </trkpt>
      <trkpt lat="44.37237" lon="4.80935">
        <ele>234.27</ele>
        <time>2021-01-12T08:13:03Z</time>
      </trkpt>
      <trkpt lat="44.37244" lon="4.80957">
        <ele>235.27</ele>
        <time>2021-01-12T08:13:19Z</time>
      </trkpt>
      <trkpt lat="44.37248" lon="4.80966">
        <ele>235.97</ele>
        <time>2021-01-12T08:13:26Z</time>
      </trkpt>
      <trkpt lat="44.37246" lon="4.80994">
        <ele>237.21</ele>
        <time>2021-01-12T08:13:42Z</time>
      </trkpt>
      <trkpt lat="44.37245" lon="4.8101">
        <ele>237.75</ele>
        <time>2021-01-12T08:13:54Z</time>
      </trkpt>
      <trkpt lat="44.37244" lon="4.8102">
        <ele>239.03</ele>
        <time>2021-01-12T08:14:05Z</time>
      </trkpt>
      <trkpt lat="44.37246" lon="4.81025">
        <ele>239.78</ele>
        <time>2021-01-12T08:14:10Z</time>
      </trkpt>
      <trkpt lat="44.37246" lon="4.81035">
        <ele>240.24</ele>
        <time>2021-01-12T08:14:16Z</time>
      </trkpt>
      <trkpt lat="44.37242" lon="4.81052">
        <ele>240.89</ele>
        <time>2021-01-12T08:14:26Z</time>
      </trkpt>
      <trkpt lat="44.37241" lon="4.81064">
        <ele>241.52</ele>
        <time>2021-01-12T08:14:34Z</time>
      </trkpt>
      <trkpt lat="44.3723" lon="4.81098">
        <ele>242.93</ele>
        <time>2021-01-12T08:14:57Z</time>
      </trkpt>
      <trkpt lat="44.37224" lon="4.81116">
        <ele>243</ele>
        <time>2021-01-12T08:15:11Z</time>
      </trkpt>
      <trkpt lat="44.3723" lon="4.81144">
        <ele>241.4</ele>
        <time>2021-01-12T08:15:32Z</time>
      </trkpt>
      <trkpt lat="44.37237" lon="4.81169">
        <ele>240.75</ele>
        <time>2021-01-12T08:15:49Z</time>
      </trkpt>
      <trkpt lat="44.37244" lon="4.8121">
        <ele>240.84</ele>
        <time>2021-01-12T08:16:14Z</time>
      </trkpt>
      <trkpt lat="44.37246" lon="4.81255">
        <ele>241.02</ele>
        <time>2021-01-12T08:16:37Z</time>
      </trkpt>
      <trkpt lat="44.37248" lon="4.81281">
        <ele>240.38</ele>
        <time>2021-01-12T08:16:53Z</time>
      </trkpt>
      <trkpt lat="44.37254" lon="4.81315">
        <ele>239.92</ele>
        <time>2021-01-12T08:17:16Z</time>
      </trkpt>
      <trkpt lat="44.37254" lon="4.81345">
        <ele>240.34</ele>
        <time>2021-01-12T08:17:35Z</time>
      </trkpt>
      <trkpt lat="44.37247" lon="4.81369">
        <ele>241.58</ele>
        <time>2021-01-12T08:17:47Z</time>
      </trkpt>
      <trkpt lat="44.37245" lon="4.81394">
        <ele>243.65</ele>
        <time>2021-01-12T08:18:06Z</time>
      </trkpt>
      <trkpt lat="44.3726" lon="4.81414">
        <ele>243.89</ele>
        <time>2021-01-12T08:18:26Z</time>
      </trkpt>
      <trkpt lat="44.37262" lon="4.81416">
        <ele>244.19</ele>
        <time>2021-01-12T08:18:28Z</time>
      </trkpt>
      <trkpt lat="44.37268" lon="4.81436">
        <ele>245.38</ele>
        <time>2021-01-12T08:18:42Z</time>
      </trkpt>
      <trkpt lat="44.37271" lon="4.81477">
        <ele>244.56</ele>
        <time>2021-01-12T08:19:07Z</time>
      </trkpt>
      <trkpt lat="44.37274" lon="4.81488">
        <ele>244.77</ele>
        <time>2021-01-12T08:19:13Z</time>
      </trkpt>
      <trkpt lat="44.37283" lon="4.81504">
        <ele>244.91</ele>
        <time>2021-01-12T08:19:27Z</time>
      </trkpt>
      <trkpt lat="44.37288" lon="4.81508">
        <ele>245.66</ele>
        <time>2021-01-12T08:19:32Z</time>
      </trkpt>
      <trkpt lat="44.37295" lon="4.81533">
        <ele>245.63</ele>
        <time>2021-01-12T08:19:45Z</time>
      </trkpt>
      <trkpt lat="44.37297" lon="4.8156">
        <ele>244.04</ele>
        <time>2021-01-12T08:19:59Z</time>
      </trkpt>
      <trkpt lat="44.37285" lon="4.81575">
        <ele>242.84</ele>
        <time>2021-01-12T08:20:18Z</time>
      </trkpt>
      <trkpt lat="44.37282" lon="4.81578">
        <ele>242.78</ele>
        <time>2021-01-12T08:20:20Z</time>
      </trkpt>
      <trkpt lat="44.3727" lon="4.81576">
        <ele>243.1</ele>
        <time>2021-01-12T08:20:29Z</time>
      </trkpt>
      <trkpt lat="44.37265" lon="4.81574">
        <ele>243.34</ele>
        <time>2021-01-12T08:20:33Z</time>
      </trkpt>
      <trkpt lat="44.37249" lon="4.81566">
        <ele>243.75</ele>
        <time>2021-01-12T08:20:45Z</time>
      </trkpt>
      <trkpt lat="44.37248" lon="4.81566">
        <ele>243.76</ele>
        <time>2021-01-12T08:20:46Z</time>
      </trkpt>
      <trkpt lat="44.3723" lon="4.81565">
        <ele>244.44</ele>
        <time>2021-01-12T08:21:00Z</time>
      </trkpt>
      <trkpt lat="44.37219" lon="4.81563">
        <ele>244.93</ele>
        <time>2021-01-12T08:21:07Z</time>
      </trkpt>
      <trkpt lat="44.37215" lon="4.81582">
        <ele>246.44</ele>
        <time>2021-01-12T08:21:22Z</time>
      </trkpt>
      <trkpt lat="44.37214" lon="4.81587">
        <ele>246.74</ele>
        <time>2021-01-12T08:21:25Z</time>
      </trkpt>
      <trkpt lat="44.37212" lon="4.81594">
        <ele>247.26</ele>
        <time>2021-01-12T08:21:30Z</time>
      </trkpt>
      <trkpt lat="44.37202" lon="4.8161">
        <ele>248.38</ele>
        <time>2021-01-12T08:21:42Z</time>
      </trkpt>
      <trkpt lat="44.372" lon="4.81612">
        <ele>248.07</ele>
        <time>2021-01-12T08:21:44Z</time>
      </trkpt>
      <trkpt lat="44.37196" lon="4.81617">
        <ele>247.66</ele>
        <time>2021-01-12T08:21:48Z</time>
      </trkpt>
      <trkpt lat="44.37187" lon="4.81632">
        <ele>247.74</ele>
        <time>2021-01-12T08:22:03Z</time>
      </trkpt>
      <trkpt lat="44.3718" lon="4.81653">
        <ele>249.68</ele>
        <time>2021-01-12T08:22:17Z</time>
      </trkpt>
      <trkpt lat="44.37172" lon="4.81676">
        <ele>249.96</ele>
        <time>2021-01-12T08:22:33Z</time>
      </trkpt>
      <trkpt lat="44.37157" lon="4.81686">
        <ele>250.65</ele>
        <time>2021-01-12T08:22:47Z</time>
      </trkpt>
      <trkpt lat="44.37153" lon="4.81688">
        <ele>250.8</ele>
        <time>2021-01-12T08:23:09Z</time>
      </trkpt>
      <trkpt lat="44.37153" lon="4.8169">
        <ele>250.65</ele>
        <time>2021-01-12T08:23:39Z</time>
      </trkpt>
      <trkpt lat="44.37145" lon="4.81693">
        <ele>250.71</ele>
        <time>2021-01-12T08:23:51Z</time>
      </trkpt>
      <trkpt lat="44.37131" lon="4.81695">
        <ele>252.17</ele>
        <time>2021-01-12T08:24:06Z</time>
      </trkpt>
      <trkpt lat="44.37123" lon="4.81703">
        <ele>253.83</ele>
        <time>2021-01-12T08:24:17Z</time>
      </trkpt>
      <trkpt lat="44.37105" lon="4.81713">
        <ele>256.35</ele>
        <time>2021-01-12T08:24:37Z</time>
      </trkpt>
      <trkpt lat="44.37094" lon="4.81717">
        <ele>257.52</ele>
        <time>2021-01-12T08:24:50Z</time>
      </trkpt>
      <trkpt lat="44.37078" lon="4.81721">
        <ele>259.96</ele>
        <time>2021-01-12T08:25:06Z</time>
      </trkpt>
      <trkpt lat="44.37067" lon="4.81723">
        <ele>262.18</ele>
        <time>2021-01-12T08:25:17Z</time>
      </trkpt>
      <trkpt lat="44.37063" lon="4.81722">
        <ele>262.59</ele>
        <time>2021-01-12T08:25:20Z</time>
      </trkpt>
      <trkpt lat="44.3706" lon="4.81722">
        <ele>262.85</ele>
        <time>2021-01-12T08:25:22Z</time>
      </trkpt>
      <trkpt lat="44.37057" lon="4.81724">
        <ele>263.28</ele>
        <time>2021-01-12T08:25:25Z</time>
      </trkpt>
      <trkpt lat="44.37045" lon="4.81733">
        <ele>264.51</ele>
        <time>2021-01-12T08:25:36Z</time>
      </trkpt>
      <trkpt lat="44.37043" lon="4.81734">
        <ele>264.81</ele>
        <time>2021-01-12T08:25:38Z</time>
      </trkpt>
      <trkpt lat="44.3703" lon="4.81739">
        <ele>265.77</ele>
        <time>2021-01-12T08:25:49Z</time>
      </trkpt>
      <trkpt lat="44.37025" lon="4.81738">
        <ele>266.46</ele>
        <time>2021-01-12T08:25:53Z</time>
      </trkpt>
      <trkpt lat="44.37022" lon="4.81737">
        <ele>267.03</ele>
        <time>2021-01-12T08:25:56Z</time>
      </trkpt>
      <trkpt lat="44.37015" lon="4.81737">
        <ele>267.52</ele>
        <time>2021-01-12T08:26:02Z</time>
      </trkpt>
      <trkpt lat="44.37013" lon="4.81745">
        <ele>269.47</ele>
        <time>2021-01-12T08:26:10Z</time>
      </trkpt>
      <trkpt lat="44.37012" lon="4.8175">
        <ele>270.17</ele>
        <time>2021-01-12T08:26:13Z</time>
      </trkpt>
      <trkpt lat="44.37006" lon="4.81764">
        <ele>271.56</ele>
        <time>2021-01-12T08:26:26Z</time>
      </trkpt>
      <trkpt lat="44.37004" lon="4.81766">
        <ele>271.79</ele>
        <time>2021-01-12T08:26:28Z</time>
      </trkpt>
      <trkpt lat="44.36994" lon="4.81773">
        <ele>272.25</ele>
        <time>2021-01-12T08:26:38Z</time>
      </trkpt>
      <trkpt lat="44.36977" lon="4.81779">
        <ele>273.8</ele>
        <time>2021-01-12T08:26:55Z</time>
      </trkpt>
      <trkpt lat="44.36956" lon="4.8178">
        <ele>276.91</ele>
        <time>2021-01-12T08:27:17Z</time>
      </trkpt>
      <trkpt lat="44.36935" lon="4.81777">
        <ele>279.94</ele>
        <time>2021-01-12T08:27:37Z</time>
      </trkpt>
      <trkpt lat="44.36924" lon="4.81779">
        <ele>281.49</ele>
        <time>2021-01-12T08:27:48Z</time>
      </trkpt>
      <trkpt lat="44.36901" lon="4.81788">
        <ele>283.42</ele>
        <time>2021-01-12T08:28:10Z</time>
      </trkpt>
      <trkpt lat="44.36887" lon="4.8179">
        <ele>284.98</ele>
        <time>2021-01-12T08:28:23Z</time>
      </trkpt>
      <trkpt lat="44.36887" lon="4.81799">
        <ele>285.45</ele>
        <time>2021-01-12T08:28:36Z</time>
      </trkpt>
      <trkpt lat="44.36884" lon="4.81804">
        <ele>285.46</ele>
        <time>2021-01-12T08:28:40Z</time>
      </trkpt>
      <trkpt lat="44.3688" lon="4.81808">
        <ele>286.38</ele>
        <time>2021-01-12T08:28:44Z</time>
      </trkpt>
      <trkpt lat="44.36867" lon="4.81825">
        <ele>287.11</ele>
        <time>2021-01-12T08:29:03Z</time>
      </trkpt>
      <trkpt lat="44.36858" lon="4.81836">
        <ele>287.58</ele>
        <time>2021-01-12T08:29:14Z</time>
      </trkpt>
      <trkpt lat="44.36854" lon="4.8186">
        <ele>288.96</ele>
        <time>2021-01-12T08:29:34Z</time>
      </trkpt>
      <trkpt lat="44.36849" lon="4.81893">
        <ele>290.66</ele>
        <time>2021-01-12T08:29:56Z</time>
      </trkpt>
      <trkpt lat="44.3685" lon="4.81925">
        <ele>291.32</ele>
        <time>2021-01-12T08:30:17Z</time>
      </trkpt>
      <trkpt lat="44.36852" lon="4.81938">
        <ele>292.62</ele>
        <time>2021-01-12T08:30:26Z</time>
      </trkpt>
      <trkpt lat="44.36854" lon="4.8197">
        <ele>292.12</ele>
        <time>2021-01-12T08:30:45Z</time>
      </trkpt>
      <trkpt lat="44.36855" lon="4.81983">
        <ele>292.29</ele>
        <time>2021-01-12T08:30:53Z</time>
      </trkpt>
      <trkpt lat="44.36859" lon="4.82012">
        <ele>292.36</ele>
        <time>2021-01-12T08:31:12Z</time>
      </trkpt>
      <trkpt lat="44.36862" lon="4.82043">
        <ele>291.92</ele>
        <time>2021-01-12T08:31:28Z</time>
      </trkpt>
      <trkpt lat="44.36864" lon="4.82063">
        <ele>291.86</ele>
        <time>2021-01-12T08:31:39Z</time>
      </trkpt>
      <trkpt lat="44.36871" lon="4.82096">
        <ele>291.24</ele>
        <time>2021-01-12T08:32:00Z</time>
      </trkpt>
      <trkpt lat="44.36874" lon="4.8213">
        <ele>289.93</ele>
        <time>2021-01-12T08:32:21Z</time>
      </trkpt>
      <trkpt lat="44.36869" lon="4.82155">
        <ele>288.15</ele>
        <time>2021-01-12T08:32:36Z</time>
      </trkpt>
      <trkpt lat="44.36863" lon="4.82169">
        <ele>288.07</ele>
        <time>2021-01-12T08:32:45Z</time>
      </trkpt>
      <trkpt lat="44.36847" lon="4.82215">
        <ele>286.72</ele>
        <time>2021-01-12T08:33:11Z</time>
      </trkpt>
      <trkpt lat="44.36844" lon="4.8223">
        <ele>285.69</ele>
        <time>2021-01-12T08:33:24Z</time>
      </trkpt>
      <trkpt lat="44.36841" lon="4.82238">
        <ele>284.81</ele>
        <time>2021-01-12T08:33:30Z</time>
      </trkpt>
      <trkpt lat="44.3684" lon="4.82248">
        <ele>283.2</ele>
        <time>2021-01-12T08:33:37Z</time>
      </trkpt>
      <trkpt lat="44.36847" lon="4.82267">
        <ele>281.51</ele>
        <time>2021-01-12T08:33:51Z</time>
      </trkpt>
      <trkpt lat="44.36855" lon="4.82296">
        <ele>278.43</ele>
        <time>2021-01-12T08:34:12Z</time>
      </trkpt>
      <trkpt lat="44.36855" lon="4.82318">
        <ele>276.94</ele>
        <time>2021-01-12T08:34:25Z</time>
      </trkpt>
      <trkpt lat="44.36836" lon="4.8234">
        <ele>274.9</ele>
        <time>2021-01-12T08:34:39Z</time>
      </trkpt>
      <trkpt lat="44.3683" lon="4.82344">
        <ele>274.16</ele>
        <time>2021-01-12T08:34:46Z</time>
      </trkpt>
      <trkpt lat="44.36806" lon="4.82369">
        <ele>271.68</ele>
        <time>2021-01-12T08:35:09Z</time>
      </trkpt>
      <trkpt lat="44.36805" lon="4.8237">
        <ele>271.6</ele>
        <time>2021-01-12T08:35:10Z</time>
      </trkpt>
      <trkpt lat="44.36798" lon="4.82384">
        <ele>269.96</ele>
        <time>2021-01-12T08:35:22Z</time>
      </trkpt>
      <trkpt lat="44.36794" lon="4.82389">
        <ele>269.37</ele>
        <time>2021-01-12T08:35:27Z</time>
      </trkpt>
      <trkpt lat="44.36779" lon="4.82411">
        <ele>266.78</ele>
        <time>2021-01-12T08:35:45Z</time>
      </trkpt>
      <trkpt lat="44.36782" lon="4.82427">
        <ele>266.37</ele>
        <time>2021-01-12T08:35:58Z</time>
      </trkpt>
      <trkpt lat="44.36783" lon="4.82432">
        <ele>265.98</ele>
        <time>2021-01-12T08:36:01Z</time>
      </trkpt>
      <trkpt lat="44.36777" lon="4.82468">
        <ele>264.77</ele>
        <time>2021-01-12T08:36:22Z</time>
      </trkpt>
      <trkpt lat="44.36775" lon="4.82508">
        <ele>263.75</ele>
        <time>2021-01-12T08:36:44Z</time>
      </trkpt>
      <trkpt lat="44.36769" lon="4.82538">
        <ele>263.16</ele>
        <time>2021-01-12T08:37:00Z</time>
      </trkpt>
      <trkpt lat="44.3677" lon="4.82561">
        <ele>261.63</ele>
        <time>2021-01-12T08:37:14Z</time>
      </trkpt>
      <trkpt lat="44.3677" lon="4.82566">
        <ele>261.63</ele>
        <time>2021-01-12T08:37:17Z</time>
      </trkpt>
      <trkpt lat="44.36768" lon="4.82576">
        <ele>261.45</ele>
        <time>2021-01-12T08:37:22Z</time>
      </trkpt>
      <trkpt lat="44.36768" lon="4.82588">
        <ele>260.94</ele>
        <time>2021-01-12T08:37:29Z</time>
      </trkpt>
      <trkpt lat="44.3678" lon="4.82601">
        <ele>259.31</ele>
        <time>2021-01-12T08:37:44Z</time>
      </trkpt>
      <trkpt lat="44.36781" lon="4.82603">
        <ele>259.17</ele>
        <time>2021-01-12T08:37:46Z</time>
      </trkpt>
      <trkpt lat="44.36785" lon="4.82617">
        <ele>258.66</ele>
        <time>2021-01-12T08:37:57Z</time>
      </trkpt>
      <trkpt lat="44.36791" lon="4.8263">
        <ele>257.18</ele>
        <time>2021-01-12T08:38:09Z</time>
      </trkpt>
      <trkpt lat="44.36803" lon="4.82653">
        <ele>256.21</ele>
        <time>2021-01-12T08:38:27Z</time>
      </trkpt>
      <trkpt lat="44.36802" lon="4.82654">
        <ele>256.07</ele>
        <time>2021-01-12T08:38:28Z</time>
      </trkpt>
      <trkpt lat="44.36799" lon="4.82657">
        <ele>255.48</ele>
        <time>2021-01-12T08:38:53Z</time>
      </trkpt>
      <trkpt lat="44.368" lon="4.82654">
        <ele>255.85</ele>
        <time>2021-01-12T08:39:24Z</time>
      </trkpt>
      <trkpt lat="44.36805" lon="4.82667">
        <ele>255.4</ele>
        <time>2021-01-12T08:39:44Z</time>
      </trkpt>
      <trkpt lat="44.36821" lon="4.827">
        <ele>253.28</ele>
        <time>2021-01-12T08:40:08Z</time>
      </trkpt>
      <trkpt lat="44.36841" lon="4.82728">
        <ele>251.59</ele>
        <time>2021-01-12T08:40:31Z</time>
      </trkpt>
      <trkpt lat="44.36846" lon="4.82747">
        <ele>250.75</ele>
        <time>2021-01-12T08:40:43Z</time>
      </trkpt>
      <trkpt lat="44.36862" lon="4.82775">
        <ele>249.69</ele>
        <time>2021-01-12T08:41:04Z</time>
      </trkpt>
      <trkpt lat="44.36873" lon="4.82808">
        <ele>248.98</ele>
        <time>2021-01-12T08:41:22Z</time>
      </trkpt>
      <trkpt lat="44.36881" lon="4.82827">
        <ele>248.69</ele>
        <time>2021-01-12T08:41:35Z</time>
      </trkpt>
      <trkpt lat="44.36889" lon="4.82851">
        <ele>247.72</ele>
        <time>2021-01-12T08:41:50Z</time>
      </trkpt>
      <trkpt lat="44.36894" lon="4.82857">
        <ele>247.86</ele>
        <time>2021-01-12T08:41:55Z</time>
      </trkpt>
      <trkpt lat="44.36893" lon="4.82862">
        <ele>247.89</ele>
        <time>2021-01-12T08:41:57Z</time>
      </trkpt>
      <trkpt lat="44.36907" lon="4.82881">
        <ele>247.04</ele>
        <time>2021-01-12T08:42:11Z</time>
      </trkpt>
      <trkpt lat="44.36908" lon="4.82883">
        <ele>246.96</ele>
        <time>2021-01-12T08:42:12Z</time>
      </trkpt>
      <trkpt lat="44.36916" lon="4.82894">
        <ele>246.27</ele>
        <time>2021-01-12T08:42:22Z</time>
      </trkpt>
      <trkpt lat="44.36918" lon="4.82907">
        <ele>245.6</ele>
        <time>2021-01-12T08:42:29Z</time>
      </trkpt>
      <trkpt lat="44.36915" lon="4.82929">
        <ele>244.17</ele>
        <time>2021-01-12T08:42:40Z</time>
      </trkpt>
      <trkpt lat="44.36916" lon="4.82945">
        <ele>243.7</ele>
        <time>2021-01-12T08:42:56Z</time>
      </trkpt>
      <trkpt lat="44.3692" lon="4.8297">
        <ele>241.21</ele>
        <time>2021-01-12T08:43:14Z</time>
      </trkpt>
      <trkpt lat="44.36921" lon="4.82996">
        <ele>238</ele>
        <time>2021-01-12T08:43:33Z</time>
      </trkpt>
      <trkpt lat="44.36912" lon="4.83028">
        <ele>236.23</ele>
        <time>2021-01-12T08:43:52Z</time>
      </trkpt>
      <trkpt lat="44.36895" lon="4.83039">
        <ele>235.07</ele>
        <time>2021-01-12T08:44:02Z</time>
      </trkpt>
      <trkpt lat="44.36889" lon="4.83043">
        <ele>234.9</ele>
        <time>2021-01-12T08:44:07Z</time>
      </trkpt>
      <trkpt lat="44.36871" lon="4.83046">
        <ele>232.51</ele>
        <time>2021-01-12T08:44:21Z</time>
      </trkpt>
      <trkpt lat="44.36869" lon="4.83045">
        <ele>232.33</ele>
        <time>2021-01-12T08:44:22Z</time>
      </trkpt>
      <trkpt lat="44.36855" lon="4.83048">
        <ele>231.58</ele>
        <time>2021-01-12T08:44:35Z</time>
      </trkpt>
      <trkpt lat="44.36837" lon="4.83051">
        <ele>231.19</ele>
        <time>2021-01-12T08:44:50Z</time>
      </trkpt>
      <trkpt lat="44.3682" lon="4.83056">
        <ele>229.74</ele>
        <time>2021-01-12T08:45:04Z</time>
      </trkpt>
      <trkpt lat="44.36804" lon="4.83064">
        <ele>227.84</ele>
        <time>2021-01-12T08:45:18Z</time>
      </trkpt>
      <trkpt lat="44.36796" lon="4.83073">
        <ele>226.81</ele>
        <time>2021-01-12T08:45:31Z</time>
      </trkpt>
      <trkpt lat="44.3677" lon="4.83067">
        <ele>226.04</ele>
        <time>2021-01-12T08:45:51Z</time>
      </trkpt>
      <trkpt lat="44.36749" lon="4.83055">
        <ele>225.11</ele>
        <time>2021-01-12T08:46:07Z</time>
      </trkpt>
      <trkpt lat="44.3674" lon="4.83051">
        <ele>225.03</ele>
        <time>2021-01-12T08:46:15Z</time>
      </trkpt>
      <trkpt lat="44.36725" lon="4.83045">
        <ele>224.8</ele>
        <time>2021-01-12T08:46:28Z</time>
      </trkpt>
      <trkpt lat="44.36721" lon="4.83043">
        <ele>225.14</ele>
        <time>2021-01-12T08:46:31Z</time>
      </trkpt>
      <trkpt lat="44.36717" lon="4.83041">
        <ele>225.23</ele>
        <time>2021-01-12T08:46:34Z</time>
      </trkpt>
      <trkpt lat="44.36707" lon="4.83037">
        <ele>224.58</ele>
        <time>2021-01-12T08:46:42Z</time>
      </trkpt>
      <trkpt lat="44.36704" lon="4.83036">
        <ele>224.15</ele>
        <time>2021-01-12T08:46:45Z</time>
      </trkpt>
      <trkpt lat="44.36691" lon="4.8303">
        <ele>224.18</ele>
        <time>2021-01-12T08:46:55Z</time>
      </trkpt>
      <trkpt lat="44.36684" lon="4.83027">
        <ele>224.3</ele>
        <time>2021-01-12T08:47:01Z</time>
      </trkpt>
      <trkpt lat="44.36668" lon="4.83018">
        <ele>223.44</ele>
        <time>2021-01-12T08:47:15Z</time>
      </trkpt>
      <trkpt lat="44.36649" lon="4.83013">
        <ele>222.86</ele>
        <time>2021-01-12T08:47:29Z</time>
      </trkpt>
      <trkpt lat="44.36636" lon="4.83012">
        <ele>222.57</ele>
        <time>2021-01-12T08:47:40Z</time>
      </trkpt>
      <trkpt lat="44.36631" lon="4.83012">
        <ele>222.33</ele>
        <time>2021-01-12T08:47:44Z</time>
      </trkpt>
      <trkpt lat="44.36616" lon="4.8301">
        <ele>221.24</ele>
        <time>2021-01-12T08:47:58Z</time>
      </trkpt>
      <trkpt lat="44.36605" lon="4.83007">
        <ele>220.62</ele>
        <time>2021-01-12T08:48:06Z</time>
      </trkpt>
      <trkpt lat="44.36591" lon="4.83011">
        <ele>220.41</ele>
        <time>2021-01-12T08:48:17Z</time>
      </trkpt>
      <trkpt lat="44.36585" lon="4.83011">
        <ele>220.59</ele>
        <time>2021-01-12T08:48:21Z</time>
      </trkpt>
      <trkpt lat="44.36568" lon="4.83008">
        <ele>220.13</ele>
        <time>2021-01-12T08:48:34Z</time>
      </trkpt>
      <trkpt lat="44.36551" lon="4.83011">
        <ele>220.24</ele>
        <time>2021-01-12T08:48:48Z</time>
      </trkpt>
      <trkpt lat="44.36533" lon="4.83021">
        <ele>219.96</ele>
        <time>2021-01-12T08:49:02Z</time>
      </trkpt>
      <trkpt lat="44.36516" lon="4.8302">
        <ele>218.99</ele>
        <time>2021-01-12T08:49:15Z</time>
      </trkpt>
      <trkpt lat="44.36497" lon="4.83018">
        <ele>218.04</ele>
        <time>2021-01-12T08:49:30Z</time>
      </trkpt>
      <trkpt lat="44.36474" lon="4.83028">
        <ele>218.26</ele>
        <time>2021-01-12T08:49:51Z</time>
      </trkpt>
      <trkpt lat="44.36464" lon="4.83037">
        <ele>217.94</ele>
        <time>2021-01-12T08:50:01Z</time>
      </trkpt>
      <trkpt lat="44.36446" lon="4.83046">
        <ele>217.5</ele>
        <time>2021-01-12T08:50:15Z</time>
      </trkpt>
      <trkpt lat="44.36437" lon="4.83048">
        <ele>217.22</ele>
        <time>2021-01-12T08:50:23Z</time>
      </trkpt>
      <trkpt lat="44.36418" lon="4.83065">
        <ele>217.62</ele>
        <time>2021-01-12T08:50:39Z</time>
      </trkpt>
      <trkpt lat="44.36415" lon="4.83069">
        <ele>217.89</ele>
        <time>2021-01-12T08:50:44Z</time>
      </trkpt>
      <trkpt lat="44.36405" lon="4.83079">
        <ele>217.71</ele>
        <time>2021-01-12T08:50:53Z</time>
      </trkpt>
      <trkpt lat="44.364" lon="4.83084">
        <ele>217.26</ele>
        <time>2021-01-12T08:50:57Z</time>
      </trkpt>
      <trkpt lat="44.36398" lon="4.83086">
        <ele>217.19</ele>
        <time>2021-01-12T08:50:59Z</time>
      </trkpt>
      <trkpt lat="44.36391" lon="4.83088">
        <ele>217.31</ele>
        <time>2021-01-12T08:51:03Z</time>
      </trkpt>
      <trkpt lat="44.36377" lon="4.83096">
        <ele>218.63</ele>
        <time>2021-01-12T08:51:16Z</time>
      </trkpt>
      <trkpt lat="44.36359" lon="4.83093">
        <ele>218.18</ele>
        <time>2021-01-12T08:51:30Z</time>
      </trkpt>
      <trkpt lat="44.36357" lon="4.83092">
        <ele>218.01</ele>
        <time>2021-01-12T08:51:32Z</time>
      </trkpt>
      <trkpt lat="44.36341" lon="4.83077">
        <ele>217.36</ele>
        <time>2021-01-12T08:51:48Z</time>
      </trkpt>
      <trkpt lat="44.36332" lon="4.8307">
        <ele>216.9</ele>
        <time>2021-01-12T08:51:59Z</time>
      </trkpt>
      <trkpt lat="44.36319" lon="4.83061">
        <ele>216.08</ele>
        <time>2021-01-12T08:52:13Z</time>
      </trkpt>
      <trkpt lat="44.36301" lon="4.8305">
        <ele>214.54</ele>
        <time>2021-01-12T08:52:30Z</time>
      </trkpt>
      <trkpt lat="44.36285" lon="4.83049">
        <ele>213.85</ele>
        <time>2021-01-12T08:52:46Z</time>
      </trkpt>
      <trkpt lat="44.36281" lon="4.83049">
        <ele>213.84</ele>
        <time>2021-01-12T08:52:49Z</time>
      </trkpt>
      <trkpt lat="44.36262" lon="4.83054">
        <ele>212.37</ele>
        <time>2021-01-12T08:53:07Z</time>
      </trkpt>
      <trkpt lat="44.36255" lon="4.8306">
        <ele>211.9</ele>
        <time>2021-01-12T08:53:18Z</time>
      </trkpt>
      <trkpt lat="44.36253" lon="4.8306">
        <ele>210.66</ele>
        <time>2021-01-12T08:53:37Z</time>
      </trkpt>
      <trkpt lat="44.36252" lon="4.83049">
        <ele>210.75</ele>
        <time>2021-01-12T08:53:54Z</time>
      </trkpt>
      <trkpt lat="44.36255" lon="4.83036">
        <ele>211.21</ele>
        <time>2021-01-12T08:54:13Z</time>
      </trkpt>
      <trkpt lat="44.36255" lon="4.8303">
        <ele>211.76</ele>
        <time>2021-01-12T08:54:31Z</time>
      </trkpt>
      <trkpt lat="44.36253" lon="4.83034">
        <ele>211.75</ele>
        <time>2021-01-12T08:54:50Z</time>
      </trkpt>
      <trkpt lat="44.36252" lon="4.83025">
        <ele>210.98</ele>
        <time>2021-01-12T08:55:13Z</time>
      </trkpt>
      <trkpt lat="44.3625" lon="4.83015">
        <ele>210.35</ele>
        <time>2021-01-12T08:55:20Z</time>
      </trkpt>
      <trkpt lat="44.36249" lon="4.83002">
        <ele>209.43</ele>
        <time>2021-01-12T08:55:29Z</time>
      </trkpt>
      <trkpt lat="44.36251" lon="4.83001">
        <ele>209.4</ele>
        <time>2021-01-12T08:55:31Z</time>
      </trkpt>
      <trkpt lat="44.36258" lon="4.82988">
        <ele>210.17</ele>
        <time>2021-01-12T08:55:52Z</time>
      </trkpt>
      <trkpt lat="44.36255" lon="4.82988">
        <ele>209.79</ele>
        <time>2021-01-12T08:56:16Z</time>
      </trkpt>
      <trkpt lat="44.36246" lon="4.82999">
        <ele>210.01</ele>
        <time>2021-01-12T08:56:47Z</time>
      </trkpt>
      <trkpt lat="44.36249" lon="4.82997">
        <ele>209.69</ele>
        <time>2021-01-12T08:57:04Z</time>
      </trkpt>
      <trkpt lat="44.36256" lon="4.82988">
        <ele>209.45</ele>
        <time>2021-01-12T08:57:36Z</time>
      </trkpt>
      <trkpt lat="44.36258" lon="4.8299">
        <ele>209.66</ele>
        <time>2021-01-12T08:58:02Z</time>
      </trkpt>
      <trkpt lat="44.36258" lon="4.82988">
        <ele>209.68</ele>
        <time>2021-01-12T08:58:04Z</time>
      </trkpt>
      <trkpt lat="44.36259" lon="4.82979">
        <ele>209.36</ele>
        <time>2021-01-12T08:58:35Z</time>
      </trkpt>
      <trkpt lat="44.36257" lon="4.82974">
        <ele>209.05</ele>
        <time>2021-01-12T08:59:08Z</time>
      </trkpt>
      <trkpt lat="44.36262" lon="4.8297">
        <ele>209.44</ele>
        <time>2021-01-12T08:59:41Z</time>
      </trkpt>
      <trkpt lat="44.36267" lon="4.82962">
        <ele>207.49</ele>
        <time>2021-01-12T08:59:52Z</time>
      </trkpt>
      <trkpt lat="44.36272" lon="4.82958">
        <ele>206.5</ele>
        <time>2021-01-12T09:00:02Z</time>
      </trkpt>
      <trkpt lat="44.36299" lon="4.82971">
        <ele>208.34</ele>
        <time>2021-01-12T09:00:27Z</time>
      </trkpt>
      <trkpt lat="44.36301" lon="4.82973">
        <ele>208.35</ele>
        <time>2021-01-12T09:00:29Z</time>
      </trkpt>
      <trkpt lat="44.36306" lon="4.82968">
        <ele>208.29</ele>
        <time>2021-01-12T09:00:39Z</time>
      </trkpt>
      <trkpt lat="44.36315" lon="4.82961">
        <ele>209.14</ele>
        <time>2021-01-12T09:01:01Z</time>
      </trkpt>
      <trkpt lat="44.36324" lon="4.82947">
        <ele>206.6</ele>
        <time>2021-01-12T09:01:18Z</time>
      </trkpt>
      <trkpt lat="44.36327" lon="4.82942">
        <ele>205.63</ele>
        <time>2021-01-12T09:01:23Z</time>
      </trkpt>
      <trkpt lat="44.36332" lon="4.82931">
        <ele>203.92</ele>
        <time>2021-01-12T09:01:38Z</time>
      </trkpt>
      <trkpt lat="44.36336" lon="4.82911">
        <ele>204.57</ele>
        <time>2021-01-12T09:01:55Z</time>
      </trkpt>
      <trkpt lat="44.36337" lon="4.82909">
        <ele>204.63</ele>
        <time>2021-01-12T09:01:57Z</time>
      </trkpt>
      <trkpt lat="44.36335" lon="4.82903">
        <ele>204.63</ele>
        <time>2021-01-12T09:02:01Z</time>
      </trkpt>
      <trkpt lat="44.36335" lon="4.82883">
        <ele>205.54</ele>
        <time>2021-01-12T09:02:12Z</time>
      </trkpt>
      <trkpt lat="44.36344" lon="4.82872">
        <ele>208.07</ele>
        <time>2021-01-12T09:02:27Z</time>
      </trkpt>
      <trkpt lat="44.36346" lon="4.8287">
        <ele>209.39</ele>
        <time>2021-01-12T09:02:35Z</time>
      </trkpt>
      <trkpt lat="44.36362" lon="4.82866">
        <ele>212.63</ele>
        <time>2021-01-12T09:02:52Z</time>
      </trkpt>
      <trkpt lat="44.36371" lon="4.82867">
        <ele>213.56</ele>
        <time>2021-01-12T09:02:58Z</time>
      </trkpt>
      <trkpt lat="44.3639" lon="4.8288">
        <ele>215.18</ele>
        <time>2021-01-12T09:03:13Z</time>
      </trkpt>
      <trkpt lat="44.36395" lon="4.82881">
        <ele>214.45</ele>
        <time>2021-01-12T09:03:27Z</time>
      </trkpt>
      <trkpt lat="44.364" lon="4.82885">
        <ele>211.23</ele>
        <time>2021-01-12T09:03:43Z</time>
      </trkpt>
      <trkpt lat="44.36413" lon="4.82889">
        <ele>208.34</ele>
        <time>2021-01-12T09:03:59Z</time>
      </trkpt>
      <trkpt lat="44.36416" lon="4.82889">
        <ele>208.4</ele>
        <time>2021-01-12T09:04:02Z</time>
      </trkpt>
      <trkpt lat="44.36428" lon="4.82885">
        <ele>211.14</ele>
        <time>2021-01-12T09:04:15Z</time>
      </trkpt>
      <trkpt lat="44.36433" lon="4.82886">
        <ele>211.67</ele>
        <time>2021-01-12T09:04:18Z</time>
      </trkpt>
      <trkpt lat="44.36443" lon="4.82894">
        <ele>212.81</ele>
        <time>2021-01-12T09:04:29Z</time>
      </trkpt>
      <trkpt lat="44.36458" lon="4.82898">
        <ele>213.77</ele>
        <time>2021-01-12T09:04:45Z</time>
      </trkpt>
      <trkpt lat="44.36479" lon="4.82908">
        <ele>214.45</ele>
        <time>2021-01-12T09:05:03Z</time>
      </trkpt>
      <trkpt lat="44.3649" lon="4.82915">
        <ele>214.68</ele>
        <time>2021-01-12T09:05:19Z</time>
      </trkpt>
      <trkpt lat="44.36495" lon="4.82915">
        <ele>214.49</ele>
        <time>2021-01-12T09:05:30Z</time>
      </trkpt>
      <trkpt lat="44.36504" lon="4.8291">
        <ele>214.66</ele>
        <time>2021-01-12T09:05:38Z</time>
      </trkpt>
      <trkpt lat="44.36507" lon="4.829">
        <ele>216.41</ele>
        <time>2021-01-12T09:05:49Z</time>
      </trkpt>
      <trkpt lat="44.36507" lon="4.82897">
        <ele>216.9</ele>
        <time>2021-01-12T09:05:51Z</time>
      </trkpt>
      <trkpt lat="44.3651" lon="4.82882">
        <ele>218.73</ele>
        <time>2021-01-12T09:06:03Z</time>
      </trkpt>
      <trkpt lat="44.36514" lon="4.82866">
        <ele>220.48</ele>
        <time>2021-01-12T09:06:15Z</time>
      </trkpt>
      <trkpt lat="44.36515" lon="4.82861">
        <ele>220.92</ele>
        <time>2021-01-12T09:06:18Z</time>
      </trkpt>
      <trkpt lat="44.36517" lon="4.82854">
        <ele>221.75</ele>
        <time>2021-01-12T09:06:24Z</time>
      </trkpt>
      <trkpt lat="44.36525" lon="4.82828">
        <ele>224.85</ele>
        <time>2021-01-12T09:06:44Z</time>
      </trkpt>
      <trkpt lat="44.36526" lon="4.8282">
        <ele>226</ele>
        <time>2021-01-12T09:06:53Z</time>
      </trkpt>
      <trkpt lat="44.36531" lon="4.82809">
        <ele>228.06</ele>
        <time>2021-01-12T09:07:06Z</time>
      </trkpt>
      <trkpt lat="44.36537" lon="4.82793">
        <ele>230.49</ele>
        <time>2021-01-12T09:07:28Z</time>
      </trkpt>
      <trkpt lat="44.36538" lon="4.8279">
        <ele>231.06</ele>
        <time>2021-01-12T09:07:31Z</time>
      </trkpt>
      <trkpt lat="44.36541" lon="4.82789">
        <ele>231.57</ele>
        <time>2021-01-12T09:07:34Z</time>
      </trkpt>
      <trkpt lat="44.36553" lon="4.82783">
        <ele>232.96</ele>
        <time>2021-01-12T09:07:47Z</time>
      </trkpt>
      <trkpt lat="44.36563" lon="4.82776">
        <ele>234.92</ele>
        <time>2021-01-12T09:08:03Z</time>
      </trkpt>
      <trkpt lat="44.3657" lon="4.8277">
        <ele>235.65</ele>
        <time>2021-01-12T09:08:15Z</time>
      </trkpt>
      <trkpt lat="44.36569" lon="4.82762">
        <ele>236.03</ele>
        <time>2021-01-12T09:08:40Z</time>
      </trkpt>
      <trkpt lat="44.36568" lon="4.82755">
        <ele>235.18</ele>
        <time>2021-01-12T09:08:54Z</time>
      </trkpt>
      <trkpt lat="44.36565" lon="4.82741">
        <ele>233.67</ele>
        <time>2021-01-12T09:09:12Z</time>
      </trkpt>
      <trkpt lat="44.36564" lon="4.82741">
        <ele>233.61</ele>
        <time>2021-01-12T09:09:13Z</time>
      </trkpt>
      <trkpt lat="44.3656" lon="4.82735">
        <ele>233.34</ele>
        <time>2021-01-12T09:09:20Z</time>
      </trkpt>
      <trkpt lat="44.36556" lon="4.82726">
        <ele>232.82</ele>
        <time>2021-01-12T09:09:59Z</time>
      </trkpt>
      <trkpt lat="44.36553" lon="4.82727">
        <ele>232.9</ele>
        <time>2021-01-12T09:10:21Z</time>
      </trkpt>
      <trkpt lat="44.36555" lon="4.82727">
        <ele>232.84</ele>
        <time>2021-01-12T09:10:46Z</time>
      </trkpt>
      <trkpt lat="44.36555" lon="4.82715">
        <ele>233.36</ele>
        <time>2021-01-12T09:11:15Z</time>
      </trkpt>
      <trkpt lat="44.36556" lon="4.82694">
        <ele>234.85</ele>
        <time>2021-01-12T09:11:33Z</time>
      </trkpt>
      <trkpt lat="44.36555" lon="4.8269">
        <ele>235.96</ele>
        <time>2021-01-12T09:11:38Z</time>
      </trkpt>
      <trkpt lat="44.36551" lon="4.82673">
        <ele>237.9</ele>
        <time>2021-01-12T09:11:53Z</time>
      </trkpt>
      <trkpt lat="44.36549" lon="4.82647">
        <ele>239.67</ele>
        <time>2021-01-12T09:12:12Z</time>
      </trkpt>
      <trkpt lat="44.36548" lon="4.82638">
        <ele>240.31</ele>
        <time>2021-01-12T09:12:18Z</time>
      </trkpt>
      <trkpt lat="44.36552" lon="4.82616">
        <ele>241.97</ele>
        <time>2021-01-12T09:12:33Z</time>
      </trkpt>
      <trkpt lat="44.36554" lon="4.82596">
        <ele>244.06</ele>
        <time>2021-01-12T09:12:48Z</time>
      </trkpt>
      <trkpt lat="44.36555" lon="4.82575">
        <ele>245.59</ele>
        <time>2021-01-12T09:13:03Z</time>
      </trkpt>
      <trkpt lat="44.36561" lon="4.82552">
        <ele>247.7</ele>
        <time>2021-01-12T09:13:18Z</time>
      </trkpt>
      <trkpt lat="44.36568" lon="4.82549">
        <ele>248.7</ele>
        <time>2021-01-12T09:13:30Z</time>
      </trkpt>
      <trkpt lat="44.36581" lon="4.82545">
        <ele>251.07</ele>
        <time>2021-01-12T09:13:48Z</time>
      </trkpt>
      <trkpt lat="44.36583" lon="4.8254">
        <ele>252.12</ele>
        <time>2021-01-12T09:13:59Z</time>
      </trkpt>
      <trkpt lat="44.3658" lon="4.82527">
        <ele>252.07</ele>
        <time>2021-01-12T09:14:13Z</time>
      </trkpt>
      <trkpt lat="44.36583" lon="4.82512">
        <ele>251.91</ele>
        <time>2021-01-12T09:14:27Z</time>
      </trkpt>
      <trkpt lat="44.36584" lon="4.82501">
        <ele>251.52</ele>
        <time>2021-01-12T09:14:37Z</time>
      </trkpt>
      <trkpt lat="44.36585" lon="4.82498">
        <ele>251.46</ele>
        <time>2021-01-12T09:14:39Z</time>
      </trkpt>
      <trkpt lat="44.36594" lon="4.82479">
        <ele>251</ele>
        <time>2021-01-12T09:14:52Z</time>
      </trkpt>
      <trkpt lat="44.36595" lon="4.82476">
        <ele>250.86</ele>
        <time>2021-01-12T09:14:54Z</time>
      </trkpt>
      <trkpt lat="44.36598" lon="4.82451">
        <ele>250.04</ele>
        <time>2021-01-12T09:15:10Z</time>
      </trkpt>
      <trkpt lat="44.36595" lon="4.82444">
        <ele>250.23</ele>
        <time>2021-01-12T09:15:18Z</time>
      </trkpt>
      <trkpt lat="44.36567" lon="4.82445">
        <ele>249.46</ele>
        <time>2021-01-12T09:15:39Z</time>
      </trkpt>
      <trkpt lat="44.36547" lon="4.8245">
        <ele>249.5</ele>
        <time>2021-01-12T09:15:57Z</time>
      </trkpt>
      <trkpt lat="44.3652" lon="4.8247">
        <ele>246.54</ele>
        <time>2021-01-12T09:16:23Z</time>
      </trkpt>
      <trkpt lat="44.36495" lon="4.8248">
        <ele>243.46</ele>
        <time>2021-01-12T09:16:47Z</time>
      </trkpt>
      <trkpt lat="44.36482" lon="4.82472">
        <ele>241.57</ele>
        <time>2021-01-12T09:17:01Z</time>
      </trkpt>
      <trkpt lat="44.36475" lon="4.82464">
        <ele>240.92</ele>
        <time>2021-01-12T09:17:10Z</time>
      </trkpt>
      <trkpt lat="44.36463" lon="4.82453">
        <ele>241.67</ele>
        <time>2021-01-12T09:17:19Z</time>
      </trkpt>
      <trkpt lat="44.36444" lon="4.82456">
        <ele>238.5</ele>
        <time>2021-01-12T09:17:37Z</time>
      </trkpt>
      <trkpt lat="44.36444" lon="4.82457">
        <ele>238.29</ele>
        <time>2021-01-12T09:17:38Z</time>
      </trkpt>
      <trkpt lat="44.36443" lon="4.82461">
        <ele>237.52</ele>
        <time>2021-01-12T09:17:41Z</time>
      </trkpt>
      <trkpt lat="44.36442" lon="4.82478">
        <ele>235.73</ele>
        <time>2021-01-12T09:17:53Z</time>
      </trkpt>
      <trkpt lat="44.36439" lon="4.82507">
        <ele>232.65</ele>
        <time>2021-01-12T09:18:13Z</time>
      </trkpt>
      <trkpt lat="44.36433" lon="4.82512">
        <ele>231.9</ele>
        <time>2021-01-12T09:18:18Z</time>
      </trkpt>
      <trkpt lat="44.36421" lon="4.8253">
        <ele>229.02</ele>
        <time>2021-01-12T09:18:33Z</time>
      </trkpt>
      <trkpt lat="44.36417" lon="4.82534">
        <ele>228.55</ele>
        <time>2021-01-12T09:19:04Z</time>
      </trkpt>
      <trkpt lat="44.36404" lon="4.82544">
        <ele>227.21</ele>
        <time>2021-01-12T09:19:21Z</time>
      </trkpt>
      <trkpt lat="44.36402" lon="4.82547">
        <ele>226.61</ele>
        <time>2021-01-12T09:19:41Z</time>
      </trkpt>
      <trkpt lat="44.36403" lon="4.8256">
        <ele>227.31</ele>
        <time>2021-01-12T09:19:56Z</time>
      </trkpt>
      <trkpt lat="44.36404" lon="4.82563">
        <ele>227.65</ele>
        <time>2021-01-12T09:20:19Z</time>
      </trkpt>
      <trkpt lat="44.36404" lon="4.82563">
        <ele>228.21</ele>
        <time>2021-01-12T09:20:38Z</time>
      </trkpt>
      <trkpt lat="44.36404" lon="4.8256">
        <ele>228.09</ele>
        <time>2021-01-12T09:21:09Z</time>
      </trkpt>
      <trkpt lat="44.36404" lon="4.82562">
        <ele>227.69</ele>
        <time>2021-01-12T09:21:33Z</time>
      </trkpt>
      <trkpt lat="44.36397" lon="4.82573">
        <ele>227.59</ele>
        <time>2021-01-12T09:22:03Z</time>
      </trkpt>
      <trkpt lat="44.36378" lon="4.82589">
        <ele>225.01</ele>
        <time>2021-01-12T09:22:22Z</time>
      </trkpt>
      <trkpt lat="44.36355" lon="4.82598">
        <ele>222.26</ele>
        <time>2021-01-12T09:22:42Z</time>
      </trkpt>
      <trkpt lat="44.36339" lon="4.82606">
        <ele>220.79</ele>
        <time>2021-01-12T09:22:57Z</time>
      </trkpt>
      <trkpt lat="44.36325" lon="4.82612">
        <ele>218.2</ele>
        <time>2021-01-12T09:23:12Z</time>
      </trkpt>
      <trkpt lat="44.36315" lon="4.82617">
        <ele>217.19</ele>
        <time>2021-01-12T09:23:20Z</time>
      </trkpt>
      <trkpt lat="44.363" lon="4.82621">
        <ele>215.27</ele>
        <time>2021-01-12T09:23:35Z</time>
      </trkpt>
      <trkpt lat="44.36289" lon="4.8262">
        <ele>213.18</ele>
        <time>2021-01-12T09:23:46Z</time>
      </trkpt>
      <trkpt lat="44.36274" lon="4.82613">
        <ele>210.86</ele>
        <time>2021-01-12T09:24:01Z</time>
      </trkpt>
      <trkpt lat="44.36263" lon="4.8262">
        <ele>208.56</ele>
        <time>2021-01-12T09:24:20Z</time>
      </trkpt>
      <trkpt lat="44.36263" lon="4.82635">
        <ele>207.04</ele>
        <time>2021-01-12T09:24:32Z</time>
      </trkpt>
      <trkpt lat="44.36255" lon="4.82647">
        <ele>204.93</ele>
        <time>2021-01-12T09:24:51Z</time>
      </trkpt>
      <trkpt lat="44.3625" lon="4.82651">
        <ele>203.95</ele>
        <time>2021-01-12T09:24:57Z</time>
      </trkpt>
      <trkpt lat="44.36235" lon="4.8266">
        <ele>200.93</ele>
        <time>2021-01-12T09:25:13Z</time>
      </trkpt>
      <trkpt lat="44.36225" lon="4.82661">
        <ele>199.75</ele>
        <time>2021-01-12T09:25:25Z</time>
      </trkpt>
      <trkpt lat="44.36206" lon="4.82659">
        <ele>197.07</ele>
        <time>2021-01-12T09:25:42Z</time>
      </trkpt>
      <trkpt lat="44.36203" lon="4.82659">
        <ele>196.71</ele>
        <time>2021-01-12T09:25:45Z</time>
      </trkpt>
      <trkpt lat="44.36201" lon="4.82657">
        <ele>196.43</ele>
        <time>2021-01-12T09:25:47Z</time>
      </trkpt>
      <trkpt lat="44.36189" lon="4.82649">
        <ele>193.77</ele>
        <time>2021-01-12T09:26:04Z</time>
      </trkpt>
      <trkpt lat="44.36184" lon="4.82645">
        <ele>193.21</ele>
        <time>2021-01-12T09:26:14Z</time>
      </trkpt>
      <trkpt lat="44.36177" lon="4.82639">
        <ele>192.36</ele>
        <time>2021-01-12T09:26:23Z</time>
      </trkpt>
      <trkpt lat="44.36163" lon="4.82629">
        <ele>190.77</ele>
        <time>2021-01-12T09:26:37Z</time>
      </trkpt>
      <trkpt lat="44.36155" lon="4.82616">
        <ele>189.23</ele>
        <time>2021-01-12T09:26:48Z</time>
      </trkpt>
      <trkpt lat="44.36135" lon="4.82607">
        <ele>186.15</ele>
        <time>2021-01-12T09:27:10Z</time>
      </trkpt>
      <trkpt lat="44.36126" lon="4.82611">
        <ele>184.39</ele>
        <time>2021-01-12T09:27:20Z</time>
      </trkpt>
      <trkpt lat="44.36123" lon="4.82619">
        <ele>183.63</ele>
        <time>2021-01-12T09:27:30Z</time>
      </trkpt>
      <trkpt lat="44.36116" lon="4.82645">
        <ele>182.78</ele>
        <time>2021-01-12T09:27:52Z</time>
      </trkpt>
      <trkpt lat="44.36111" lon="4.82662">
        <ele>181.5</ele>
        <time>2021-01-12T09:28:07Z</time>
      </trkpt>
      <trkpt lat="44.36101" lon="4.82686">
        <ele>179.65</ele>
        <time>2021-01-12T09:28:24Z</time>
      </trkpt>
      <trkpt lat="44.36092" lon="4.8269">
        <ele>179.01</ele>
        <time>2021-01-12T09:28:34Z</time>
      </trkpt>
      <trkpt lat="44.36081" lon="4.82691">
        <ele>178.49</ele>
        <time>2021-01-12T09:28:52Z</time>
      </trkpt>
      <trkpt lat="44.36081" lon="4.82691">
        <ele>178.48</ele>
        <time>2021-01-12T09:28:53Z</time>
      </trkpt>
      <trkpt lat="44.36068" lon="4.82683">
        <ele>176.88</ele>
        <time>2021-01-12T09:29:13Z</time>
      </trkpt>
      <trkpt lat="44.3606" lon="4.82676">
        <ele>175.63</ele>
        <time>2021-01-12T09:29:28Z</time>
      </trkpt>
      <trkpt lat="44.36047" lon="4.82668">
        <ele>173.55</ele>
        <time>2021-01-12T09:29:41Z</time>
      </trkpt>
      <trkpt lat="44.36028" lon="4.8266">
        <ele>171.67</ele>
        <time>2021-01-12T09:29:59Z</time>
      </trkpt>
      <trkpt lat="44.36011" lon="4.82657">
        <ele>170.32</ele>
        <time>2021-01-12T09:30:18Z</time>
      </trkpt>
      <trkpt lat="44.35988" lon="4.82654">
        <ele>168.11</ele>
        <time>2021-01-12T09:30:39Z</time>
      </trkpt>
      <trkpt lat="44.35984" lon="4.82652">
        <ele>167.36</ele>
        <time>2021-01-12T09:30:52Z</time>
      </trkpt>
      <trkpt lat="44.35966" lon="4.82646">
        <ele>165.26</ele>
        <time>2021-01-12T09:31:09Z</time>
      </trkpt>
      <trkpt lat="44.35952" lon="4.82641">
        <ele>163.94</ele>
        <time>2021-01-12T09:31:24Z</time>
      </trkpt>
      <trkpt lat="44.35939" lon="4.82639">
        <ele>162.69</ele>
        <time>2021-01-12T09:31:36Z</time>
      </trkpt>
      <trkpt lat="44.35938" lon="4.82639">
        <ele>162.62</ele>
        <time>2021-01-12T09:31:37Z</time>
      </trkpt>
      <trkpt lat="44.35935" lon="4.82639">
        <ele>162.43</ele>
        <time>2021-01-12T09:31:39Z</time>
      </trkpt>
      <trkpt lat="44.35927" lon="4.82637">
        <ele>160.81</ele>
        <time>2021-01-12T09:31:51Z</time>
      </trkpt>
      <trkpt lat="44.35918" lon="4.82635">
        <ele>160.81</ele>
        <time>2021-01-12T09:32:01Z</time>
      </trkpt>
      <trkpt lat="44.35907" lon="4.82636">
        <ele>160.6</ele>
        <time>2021-01-12T09:32:10Z</time>
      </trkpt>
      <trkpt lat="44.35901" lon="4.82638">
        <ele>160.09</ele>
        <time>2021-01-12T09:32:15Z</time>
      </trkpt>
      <trkpt lat="44.35894" lon="4.82639">
        <ele>159.61</ele>
        <time>2021-01-12T09:32:20Z</time>
      </trkpt>
      <trkpt lat="44.35874" lon="4.82641">
        <ele>158.88</ele>
        <time>2021-01-12T09:32:36Z</time>
      </trkpt>
      <trkpt lat="44.35848" lon="4.82654">
        <ele>155.82</ele>
        <time>2021-01-12T09:33:00Z</time>
      </trkpt>
      <trkpt lat="44.35841" lon="4.82658">
        <ele>154.68</ele>
        <time>2021-01-12T09:33:13Z</time>
      </trkpt>
      <trkpt lat="44.3583" lon="4.82673">
        <ele>153.99</ele>
        <time>2021-01-12T09:33:34Z</time>
      </trkpt>
      <trkpt lat="44.35813" lon="4.8269">
        <ele>153.45</ele>
        <time>2021-01-12T09:33:54Z</time>
      </trkpt>
      <trkpt lat="44.35791" lon="4.82712">
        <ele>152.6</ele>
        <time>2021-01-12T09:34:15Z</time>
      </trkpt>
      <trkpt lat="44.3578" lon="4.82709">
        <ele>151.38</ele>
        <time>2021-01-12T09:34:28Z</time>
      </trkpt>
      <trkpt lat="44.35773" lon="4.82708">
        <ele>150.63</ele>
        <time>2021-01-12T09:34:36Z</time>
      </trkpt>
      <trkpt lat="44.35756" lon="4.8271">
        <ele>149.64</ele>
        <time>2021-01-12T09:34:57Z</time>
      </trkpt>
      <trkpt lat="44.35739" lon="4.82705">
        <ele>147.48</ele>
        <time>2021-01-12T09:35:15Z</time>
      </trkpt>
      <trkpt lat="44.35718" lon="4.82722">
        <ele>144.73</ele>
        <time>2021-01-12T09:35:38Z</time>
      </trkpt>
      <trkpt lat="44.35701" lon="4.82724">
        <ele>143</ele>
        <time>2021-01-12T09:36:00Z</time>
      </trkpt>
      <trkpt lat="44.35695" lon="4.82718">
        <ele>142.8</ele>
        <time>2021-01-12T09:36:08Z</time>
      </trkpt>
      <trkpt lat="44.35686" lon="4.82708">
        <ele>141.67</ele>
        <time>2021-01-12T09:36:22Z</time>
      </trkpt>
      <trkpt lat="44.35676" lon="4.82711">
        <ele>139.9</ele>
        <time>2021-01-12T09:36:36Z</time>
      </trkpt>
      <trkpt lat="44.35665" lon="4.82714">
        <ele>138.3</ele>
        <time>2021-01-12T09:36:48Z</time>
      </trkpt>
      <trkpt lat="44.3564" lon="4.82713">
        <ele>137.08</ele>
        <time>2021-01-12T09:37:11Z</time>
      </trkpt>
      <trkpt lat="44.35627" lon="4.82719">
        <ele>137.49</ele>
        <time>2021-01-12T09:37:25Z</time>
      </trkpt>
      <trkpt lat="44.35612" lon="4.82726">
        <ele>137.85</ele>
        <time>2021-01-12T09:37:41Z</time>
      </trkpt>
      <trkpt lat="44.35599" lon="4.82732">
        <ele>136.89</ele>
        <time>2021-01-12T09:37:51Z</time>
      </trkpt>
      <trkpt lat="44.3557" lon="4.82737">
        <ele>134.46</ele>
        <time>2021-01-12T09:38:14Z</time>
      </trkpt>
      <trkpt lat="44.35546" lon="4.82738">
        <ele>132.86</ele>
        <time>2021-01-12T09:38:37Z</time>
      </trkpt>
      <trkpt lat="44.35519" lon="4.8274">
        <ele>131.78</ele>
        <time>2021-01-12T09:39:01Z</time>
      </trkpt>
      <trkpt lat="44.35502" lon="4.82731">
        <ele>130.59</ele>
        <time>2021-01-12T09:39:18Z</time>
      </trkpt>
      <trkpt lat="44.35479" lon="4.82727">
        <ele>129.21</ele>
        <time>2021-01-12T09:39:37Z</time>
      </trkpt>
      <trkpt lat="44.3547" lon="4.82727">
        <ele>127.93</ele>
        <time>2021-01-12T09:39:45Z</time>
      </trkpt>
      <trkpt lat="44.35449" lon="4.82728">
        <ele>126.07</ele>
        <time>2021-01-12T09:40:02Z</time>
      </trkpt>
      <trkpt lat="44.35443" lon="4.82723">
        <ele>124.95</ele>
        <time>2021-01-12T09:40:23Z</time>
      </trkpt>
      <trkpt lat="44.35435" lon="4.82714">
        <ele>125.31</ele>
        <time>2021-01-12T09:40:38Z</time>
      </trkpt>
      <trkpt lat="44.35421" lon="4.827">
        <ele>125.59</ele>
        <time>2021-01-12T09:40:54Z</time>
      </trkpt>
      <trkpt lat="44.35412" lon="4.82697">
        <ele>125.74</ele>
        <time>2021-01-12T09:41:19Z</time>
      </trkpt>
      <trkpt lat="44.35412" lon="4.82697">
        <ele>125.84</ele>
        <time>2021-01-12T09:41:53Z</time>
      </trkpt>
      <trkpt lat="44.3541" lon="4.82697">
        <ele>125.16</ele>
        <time>2021-01-12T09:42:25Z</time>
      </trkpt>
      <trkpt lat="44.35398" lon="4.82679">
        <ele>125.96</ele>
        <time>2021-01-12T09:42:46Z</time>
      </trkpt>
      <trkpt lat="44.35392" lon="4.82655">
        <ele>126.8</ele>
        <time>2021-01-12T09:43:07Z</time>
      </trkpt>
      <trkpt lat="44.35389" lon="4.82644">
        <ele>128.27</ele>
        <time>2021-01-12T09:43:28Z</time>
      </trkpt>
      <trkpt lat="44.35389" lon="4.82635">
        <ele>128.11</ele>
        <time>2021-01-12T09:43:38Z</time>
      </trkpt>
      <trkpt lat="44.35387" lon="4.8261">
        <ele>128.97</ele>
        <time>2021-01-12T09:43:54Z</time>
      </trkpt>
      <trkpt lat="44.35385" lon="4.82586">
        <ele>128.64</ele>
        <time>2021-01-12T09:44:10Z</time>
      </trkpt>
      <trkpt lat="44.3539" lon="4.82559">
        <ele>129.11</ele>
        <time>2021-01-12T09:44:29Z</time>
      </trkpt>
      <trkpt lat="44.35394" lon="4.82543">
        <ele>128.88</ele>
        <time>2021-01-12T09:44:43Z</time>
      </trkpt>
      <trkpt lat="44.35391" lon="4.82539">
        <ele>128.67</ele>
        <time>2021-01-12T09:44:47Z</time>
      </trkpt>
      <trkpt lat="44.35379" lon="4.82518">
        <ele>129.72</ele>
        <time>2021-01-12T09:45:05Z</time>
      </trkpt>
      <trkpt lat="44.35381" lon="4.82508">
        <ele>130.93</ele>
        <time>2021-01-12T09:45:25Z</time>
      </trkpt>
      <trkpt lat="44.35388" lon="4.82498">
        <ele>131.4</ele>
        <time>2021-01-12T09:45:44Z</time>
      </trkpt>
      <trkpt lat="44.35393" lon="4.82491">
        <ele>132.88</ele>
        <time>2021-01-12T09:45:55Z</time>
      </trkpt>
      <trkpt lat="44.35396" lon="4.82476">
        <ele>134.84</ele>
        <time>2021-01-12T09:46:07Z</time>
      </trkpt>
      <trkpt lat="44.35403" lon="4.82463">
        <ele>137.31</ele>
        <time>2021-01-12T09:46:19Z</time>
      </trkpt>
      <trkpt lat="44.35404" lon="4.82461">
        <ele>137.64</ele>
        <time>2021-01-12T09:46:21Z</time>
      </trkpt>
      <trkpt lat="44.3541" lon="4.82443">
        <ele>139.91</ele>
        <time>2021-01-12T09:46:37Z</time>
      </trkpt>
      <trkpt lat="44.35416" lon="4.82427">
        <ele>141.05</ele>
        <time>2021-01-12T09:46:51Z</time>
      </trkpt>
      <trkpt lat="44.35419" lon="4.82407">
        <ele>143.57</ele>
        <time>2021-01-12T09:47:04Z</time>
      </trkpt>
      <trkpt lat="44.35427" lon="4.82391">
        <ele>144.64</ele>
        <time>2021-01-12T09:47:16Z</time>
      </trkpt>
      <trkpt lat="44.35434" lon="4.82376">
        <ele>147.22</ele>
        <time>2021-01-12T09:47:28Z</time>
      </trkpt>
      <trkpt lat="44.3544" lon="4.82383">
        <ele>147.84</ele>
        <time>2021-01-12T09:47:47Z</time>
      </trkpt>
      <trkpt lat="44.35443" lon="4.82386">
        <ele>148.4</ele>
        <time>2021-01-12T09:47:51Z</time>
      </trkpt>
      <trkpt lat="44.35453" lon="4.82389">
        <ele>149.53</ele>
        <time>2021-01-12T09:48:07Z</time>
      </trkpt>
      <trkpt lat="44.35461" lon="4.82386">
        <ele>151.31</ele>
        <time>2021-01-12T09:48:20Z</time>
      </trkpt>
      <trkpt lat="44.35468" lon="4.82379">
        <ele>153.32</ele>
        <time>2021-01-12T09:48:33Z</time>
      </trkpt>
      <trkpt lat="44.35472" lon="4.8237">
        <ele>154.72</ele>
        <time>2021-01-12T09:48:44Z</time>
      </trkpt>
      <trkpt lat="44.35481" lon="4.82354">
        <ele>156.98</ele>
        <time>2021-01-12T09:48:58Z</time>
      </trkpt>
      <trkpt lat="44.35487" lon="4.82339">
        <ele>158.09</ele>
        <time>2021-01-12T09:49:10Z</time>
      </trkpt>
      <trkpt lat="44.35493" lon="4.82327">
        <ele>159.76</ele>
        <time>2021-01-12T09:49:22Z</time>
      </trkpt>
      <trkpt lat="44.35499" lon="4.82321">
        <ele>160.71</ele>
        <time>2021-01-12T09:49:29Z</time>
      </trkpt>
      <trkpt lat="44.35508" lon="4.82307">
        <ele>162.18</ele>
        <time>2021-01-12T09:49:40Z</time>
      </trkpt>
      <trkpt lat="44.35513" lon="4.82291">
        <ele>164.01</ele>
        <time>2021-01-12T09:49:57Z</time>
      </trkpt>
      <trkpt lat="44.35513" lon="4.8228">
        <ele>164.23</ele>
        <time>2021-01-12T09:50:05Z</time>
      </trkpt>
      <trkpt lat="44.35516" lon="4.82265">
        <ele>165.21</ele>
        <time>2021-01-12T09:50:16Z</time>
      </trkpt>
      <trkpt lat="44.35532" lon="4.82245">
        <ele>168.27</ele>
        <time>2021-01-12T09:50:35Z</time>
      </trkpt>
      <trkpt lat="44.3554" lon="4.8223">
        <ele>170.67</ele>
        <time>2021-01-12T09:50:50Z</time>
      </trkpt>
      <trkpt lat="44.35544" lon="4.82211">
        <ele>173.8</ele>
        <time>2021-01-12T09:51:09Z</time>
      </trkpt>
      <trkpt lat="44.35561" lon="4.82194">
        <ele>175.48</ele>
        <time>2021-01-12T09:51:22Z</time>
      </trkpt>
      <trkpt lat="44.35563" lon="4.82192">
        <ele>175.83</ele>
        <time>2021-01-12T09:51:24Z</time>
      </trkpt>
      <trkpt lat="44.35565" lon="4.82189">
        <ele>176.3</ele>
        <time>2021-01-12T09:51:27Z</time>
      </trkpt>
      <trkpt lat="44.35571" lon="4.82171">
        <ele>178.6</ele>
        <time>2021-01-12T09:51:44Z</time>
      </trkpt>
      <trkpt lat="44.35574" lon="4.82151">
        <ele>180.92</ele>
        <time>2021-01-12T09:52:00Z</time>
      </trkpt>
      <trkpt lat="44.35584" lon="4.82138">
        <ele>181.9</ele>
        <time>2021-01-12T09:52:11Z</time>
      </trkpt>
      <trkpt lat="44.35595" lon="4.82116">
        <ele>183.73</ele>
        <time>2021-01-12T09:52:31Z</time>
      </trkpt>
      <trkpt lat="44.35603" lon="4.82104">
        <ele>184.66</ele>
        <time>2021-01-12T09:52:47Z</time>
      </trkpt>
      <trkpt lat="44.35616" lon="4.82088">
        <ele>185.96</ele>
        <time>2021-01-12T09:53:03Z</time>
      </trkpt>
      <trkpt lat="44.35616" lon="4.82075">
        <ele>186.92</ele>
        <time>2021-01-12T09:53:16Z</time>
      </trkpt>
      <trkpt lat="44.35618" lon="4.82052">
        <ele>189.44</ele>
        <time>2021-01-12T09:53:38Z</time>
      </trkpt>
      <trkpt lat="44.35617" lon="4.8204">
        <ele>190.53</ele>
        <time>2021-01-12T09:53:46Z</time>
      </trkpt>
      <trkpt lat="44.35632" lon="4.82015">
        <ele>193.49</ele>
        <time>2021-01-12T09:54:04Z</time>
      </trkpt>
      <trkpt lat="44.35636" lon="4.82005">
        <ele>195.05</ele>
        <time>2021-01-12T09:54:16Z</time>
      </trkpt>
      <trkpt lat="44.35636" lon="4.81986">
        <ele>198.2</ele>
        <time>2021-01-12T09:54:35Z</time>
      </trkpt>
      <trkpt lat="44.35648" lon="4.81973">
        <ele>198.91</ele>
        <time>2021-01-12T09:54:45Z</time>
      </trkpt>
      <trkpt lat="44.35657" lon="4.81959">
        <ele>200.52</ele>
        <time>2021-01-12T09:55:01Z</time>
      </trkpt>
      <trkpt lat="44.35687" lon="4.81947">
        <ele>202.69</ele>
        <time>2021-01-12T09:55:21Z</time>
      </trkpt>
      <trkpt lat="44.35693" lon="4.81946">
        <ele>203.29</ele>
        <time>2021-01-12T09:55:35Z</time>
      </trkpt>
      <trkpt lat="44.35692" lon="4.81942">
        <ele>202.87</ele>
        <time>2021-01-12T09:56:03Z</time>
      </trkpt>
      <trkpt lat="44.35692" lon="4.81945">
        <ele>202.64</ele>
        <time>2021-01-12T09:56:31Z</time>
      </trkpt>
      <trkpt lat="44.35688" lon="4.81938">
        <ele>202.7</ele>
        <time>2021-01-12T09:57:01Z</time>
      </trkpt>
      <trkpt lat="44.35686" lon="4.81933">
        <ele>202.48</ele>
        <time>2021-01-12T09:57:34Z</time>
      </trkpt>
      <trkpt lat="44.35683" lon="4.81927">
        <ele>202.39</ele>
        <time>2021-01-12T09:58:06Z</time>
      </trkpt>
      <trkpt lat="44.35684" lon="4.81934">
        <ele>202.8</ele>
        <time>2021-01-12T09:58:37Z</time>
      </trkpt>
      <trkpt lat="44.35686" lon="4.81937">
        <ele>202.8</ele>
        <time>2021-01-12T09:58:55Z</time>
      </trkpt>
      <trkpt lat="44.35688" lon="4.8194">
        <ele>202.58</ele>
        <time>2021-01-12T09:59:24Z</time>
      </trkpt>
      <trkpt lat="44.35689" lon="4.81939">
        <ele>203.13</ele>
        <time>2021-01-12T09:59:49Z</time>
      </trkpt>
      <trkpt lat="44.35701" lon="4.81935">
        <ele>203.77</ele>
        <time>2021-01-12T10:00:11Z</time>
      </trkpt>
      <trkpt lat="44.35711" lon="4.81928">
        <ele>206.79</ele>
        <time>2021-01-12T10:00:27Z</time>
      </trkpt>
      <trkpt lat="44.35728" lon="4.81922">
        <ele>209.94</ele>
        <time>2021-01-12T10:00:44Z</time>
      </trkpt>
      <trkpt lat="44.35738" lon="4.81919">
        <ele>213.07</ele>
        <time>2021-01-12T10:00:55Z</time>
      </trkpt>
      <trkpt lat="44.35749" lon="4.81914">
        <ele>216.14</ele>
        <time>2021-01-12T10:01:08Z</time>
      </trkpt>
      <trkpt lat="44.35757" lon="4.81912">
        <ele>218.29</ele>
        <time>2021-01-12T10:01:17Z</time>
      </trkpt>
      <trkpt lat="44.35767" lon="4.81903">
        <ele>221.61</ele>
        <time>2021-01-12T10:01:32Z</time>
      </trkpt>
      <trkpt lat="44.35779" lon="4.81894">
        <ele>224.72</ele>
        <time>2021-01-12T10:01:49Z</time>
      </trkpt>
      <trkpt lat="44.35789" lon="4.81884">
        <ele>227.95</ele>
        <time>2021-01-12T10:02:03Z</time>
      </trkpt>
      <trkpt lat="44.35797" lon="4.81876">
        <ele>230.33</ele>
        <time>2021-01-12T10:02:18Z</time>
      </trkpt>
      <trkpt lat="44.35812" lon="4.81864">
        <ele>232.4</ele>
        <time>2021-01-12T10:02:37Z</time>
      </trkpt>
      <trkpt lat="44.35837" lon="4.81854">
        <ele>234.95</ele>
        <time>2021-01-12T10:02:58Z</time>
      </trkpt>
      <trkpt lat="44.3585" lon="4.81851">
        <ele>235.84</ele>
        <time>2021-01-12T10:03:20Z</time>
      </trkpt>
      <trkpt lat="44.35862" lon="4.81843">
        <ele>236.74</ele>
        <time>2021-01-12T10:03:36Z</time>
      </trkpt>
      <trkpt lat="44.35862" lon="4.81838">
        <ele>236.89</ele>
        <time>2021-01-12T10:03:41Z</time>
      </trkpt>
      <trkpt lat="44.35861" lon="4.8183">
        <ele>236.83</ele>
        <time>2021-01-12T10:04:08Z</time>
      </trkpt>
      <trkpt lat="44.35852" lon="4.81823">
        <ele>236.18</ele>
        <time>2021-01-12T10:04:34Z</time>
      </trkpt>
      <trkpt lat="44.35837" lon="4.81808">
        <ele>234.35</ele>
        <time>2021-01-12T10:04:56Z</time>
      </trkpt>
      <trkpt lat="44.35827" lon="4.81795">
        <ele>231.28</ele>
        <time>2021-01-12T10:05:13Z</time>
      </trkpt>
      <trkpt lat="44.35826" lon="4.81794">
        <ele>231.02</ele>
        <time>2021-01-12T10:05:14Z</time>
      </trkpt>
      <trkpt lat="44.35825" lon="4.81788">
        <ele>230.05</ele>
        <time>2021-01-12T10:05:19Z</time>
      </trkpt>
      <trkpt lat="44.35826" lon="4.81771">
        <ele>228.75</ele>
        <time>2021-01-12T10:05:30Z</time>
      </trkpt>
      <trkpt lat="44.35826" lon="4.8176">
        <ele>227.75</ele>
        <time>2021-01-12T10:05:35Z</time>
      </trkpt>
      <trkpt lat="44.35825" lon="4.81754">
        <ele>227.5</ele>
        <time>2021-01-12T10:05:40Z</time>
      </trkpt>
      <trkpt lat="44.3582" lon="4.81737">
        <ele>226.38</ele>
        <time>2021-01-12T10:05:51Z</time>
      </trkpt>
      <trkpt lat="44.3582" lon="4.81731">
        <ele>226.25</ele>
        <time>2021-01-12T10:05:55Z</time>
      </trkpt>
      <trkpt lat="44.35819" lon="4.81721">
        <ele>225.87</ele>
        <time>2021-01-12T10:06:02Z</time>
      </trkpt>
      <trkpt lat="44.35817" lon="4.81706">
        <ele>225.83</ele>
        <time>2021-01-12T10:06:11Z</time>
      </trkpt>
      <trkpt lat="44.35804" lon="4.81686">
        <ele>224.89</ele>
        <time>2021-01-12T10:06:30Z</time>
      </trkpt>
      <trkpt lat="44.35786" lon="4.81676">
        <ele>224.82</ele>
        <time>2021-01-12T10:06:48Z</time>
      </trkpt>
      <trkpt lat="44.35759" lon="4.81656">
        <ele>225.11</ele>
        <time>2021-01-12T10:07:12Z</time>
      </trkpt>
      <trkpt lat="44.35743" lon="4.81631">
        <ele>225.33</ele>
        <time>2021-01-12T10:07:33Z</time>
      </trkpt>
      <trkpt lat="44.35739" lon="4.81625">
        <ele>224.95</ele>
        <time>2021-01-12T10:07:39Z</time>
      </trkpt>
      <trkpt lat="44.35726" lon="4.81598">
        <ele>223.55</ele>
        <time>2021-01-12T10:07:59Z</time>
      </trkpt>
      <trkpt lat="44.35708" lon="4.81583">
        <ele>222.98</ele>
        <time>2021-01-12T10:08:17Z</time>
      </trkpt>
      <trkpt lat="44.3569" lon="4.8157">
        <ele>219.69</ele>
        <time>2021-01-12T10:08:33Z</time>
      </trkpt>
      <trkpt lat="44.35684" lon="4.81566">
        <ele>218.65</ele>
        <time>2021-01-12T10:08:39Z</time>
      </trkpt>
      <trkpt lat="44.35671" lon="4.81554">
        <ele>216</ele>
        <time>2021-01-12T10:08:52Z</time>
      </trkpt>
      <trkpt lat="44.3567" lon="4.81552">
        <ele>215.33</ele>
        <time>2021-01-12T10:08:54Z</time>
      </trkpt>
      <trkpt lat="44.35653" lon="4.81545">
        <ele>215.34</ele>
        <time>2021-01-12T10:09:10Z</time>
      </trkpt>
      <trkpt lat="44.3565" lon="4.81542">
        <ele>215.33</ele>
        <time>2021-01-12T10:09:13Z</time>
      </trkpt>
      <trkpt lat="44.35643" lon="4.81539">
        <ele>214.7</ele>
        <time>2021-01-12T10:09:32Z</time>
      </trkpt>
      <trkpt lat="44.3564" lon="4.81534">
        <ele>214.46</ele>
        <time>2021-01-12T10:09:58Z</time>
      </trkpt>
      <trkpt lat="44.35627" lon="4.81527">
        <ele>212.47</ele>
        <time>2021-01-12T10:10:19Z</time>
      </trkpt>
      <trkpt lat="44.35614" lon="4.81526">
        <ele>209.41</ele>
        <time>2021-01-12T10:10:35Z</time>
      </trkpt>
      <trkpt lat="44.35592" lon="4.81516">
        <ele>206.28</ele>
        <time>2021-01-12T10:10:57Z</time>
      </trkpt>
      <trkpt lat="44.3558" lon="4.81501">
        <ele>204.19</ele>
        <time>2021-01-12T10:11:12Z</time>
      </trkpt>
      <trkpt lat="44.35565" lon="4.8147">
        <ele>201.64</ele>
        <time>2021-01-12T10:11:36Z</time>
      </trkpt>
      <trkpt lat="44.3555" lon="4.81453">
        <ele>198.55</ele>
        <time>2021-01-12T10:11:54Z</time>
      </trkpt>
      <trkpt lat="44.35548" lon="4.81451">
        <ele>198.08</ele>
        <time>2021-01-12T10:11:56Z</time>
      </trkpt>
      <trkpt lat="44.35528" lon="4.81428">
        <ele>194.98</ele>
        <time>2021-01-12T10:12:19Z</time>
      </trkpt>
      <trkpt lat="44.35507" lon="4.81418">
        <ele>191.89</ele>
        <time>2021-01-12T10:12:37Z</time>
      </trkpt>
      <trkpt lat="44.35504" lon="4.81419">
        <ele>191.51</ele>
        <time>2021-01-12T10:12:39Z</time>
      </trkpt>
      <trkpt lat="44.35498" lon="4.81418">
        <ele>190.87</ele>
        <time>2021-01-12T10:12:45Z</time>
      </trkpt>
      <trkpt lat="44.35484" lon="4.81415">
        <ele>189.15</ele>
        <time>2021-01-12T10:12:58Z</time>
      </trkpt>
      <trkpt lat="44.35468" lon="4.81411">
        <ele>187.36</ele>
        <time>2021-01-12T10:13:13Z</time>
      </trkpt>
      <trkpt lat="44.35454" lon="4.8141">
        <ele>184.98</ele>
        <time>2021-01-12T10:13:27Z</time>
      </trkpt>
      <trkpt lat="44.35436" lon="4.81412">
        <ele>183.64</ele>
        <time>2021-01-12T10:13:43Z</time>
      </trkpt>
      <trkpt lat="44.35408" lon="4.81412">
        <ele>181.48</ele>
        <time>2021-01-12T10:14:06Z</time>
      </trkpt>
      <trkpt lat="44.35394" lon="4.81416">
        <ele>178.66</ele>
        <time>2021-01-12T10:14:21Z</time>
      </trkpt>
      <trkpt lat="44.3538" lon="4.81423">
        <ele>175.6</ele>
        <time>2021-01-12T10:14:37Z</time>
      </trkpt>
      <trkpt lat="44.35366" lon="4.81424">
        <ele>172.43</ele>
        <time>2021-01-12T10:14:53Z</time>
      </trkpt>
      <trkpt lat="44.35356" lon="4.81421">
        <ele>169.51</ele>
        <time>2021-01-12T10:15:06Z</time>
      </trkpt>
      <trkpt lat="44.35344" lon="4.81414">
        <ele>166.45</ele>
        <time>2021-01-12T10:15:23Z</time>
      </trkpt>
      <trkpt lat="44.35329" lon="4.81407">
        <ele>164.49</ele>
        <time>2021-01-12T10:15:40Z</time>
      </trkpt>
      <trkpt lat="44.35315" lon="4.81404">
        <ele>161.35</ele>
        <time>2021-01-12T10:15:56Z</time>
      </trkpt>
      <trkpt lat="44.35304" lon="4.81398">
        <ele>158.27</ele>
        <time>2021-01-12T10:16:13Z</time>
      </trkpt>
      <trkpt lat="44.35297" lon="4.81398">
        <ele>155.26</ele>
        <time>2021-01-12T10:16:27Z</time>
      </trkpt>
      <trkpt lat="44.35293" lon="4.81393">
        <ele>152.21</ele>
        <time>2021-01-12T10:16:39Z</time>
      </trkpt>
      <trkpt lat="44.35282" lon="4.81387">
        <ele>149.08</ele>
        <time>2021-01-12T10:16:52Z</time>
      </trkpt>
      <trkpt lat="44.35269" lon="4.81387">
        <ele>146.05</ele>
        <time>2021-01-12T10:17:06Z</time>
      </trkpt>
      <trkpt lat="44.3526" lon="4.8138">
        <ele>145.2</ele>
        <time>2021-01-12T10:17:20Z</time>
      </trkpt>
      <trkpt lat="44.35255" lon="4.81373">
        <ele>141.94</ele>
        <time>2021-01-12T10:17:33Z</time>
      </trkpt>
      <trkpt lat="44.35248" lon="4.8137">
        <ele>139.8</ele>
        <time>2021-01-12T10:17:45Z</time>
      </trkpt>
      <trkpt lat="44.35244" lon="4.81372">
        <ele>139.9</ele>
        <time>2021-01-12T10:18:02Z</time>
      </trkpt>
      <trkpt lat="44.35242" lon="4.81387">
        <ele>142.92</ele>
        <time>2021-01-12T10:18:20Z</time>
      </trkpt>
      <trkpt lat="44.35246" lon="4.81395">
        <ele>143.13</ele>
        <time>2021-01-12T10:18:42Z</time>
      </trkpt>
      <trkpt lat="44.35247" lon="4.81407">
        <ele>144.5</ele>
        <time>2021-01-12T10:19:01Z</time>
      </trkpt>
      <trkpt lat="44.35244" lon="4.81422">
        <ele>143.5</ele>
        <time>2021-01-12T10:19:20Z</time>
      </trkpt>
      <trkpt lat="44.35241" lon="4.81434">
        <ele>140.5</ele>
        <time>2021-01-12T10:19:39Z</time>
      </trkpt>
      <trkpt lat="44.35243" lon="4.81439">
        <ele>139.22</ele>
        <time>2021-01-12T10:19:45Z</time>
      </trkpt>
      <trkpt lat="44.35244" lon="4.81447">
        <ele>138.29</ele>
        <time>2021-01-12T10:19:56Z</time>
      </trkpt>
      <trkpt lat="44.35248" lon="4.81453">
        <ele>138.19</ele>
        <time>2021-01-12T10:20:05Z</time>
      </trkpt>
      <trkpt lat="44.35251" lon="4.81468">
        <ele>139.82</ele>
        <time>2021-01-12T10:20:17Z</time>
      </trkpt>
      <trkpt lat="44.35251" lon="4.8147">
        <ele>140.1</ele>
        <time>2021-01-12T10:20:19Z</time>
      </trkpt>
      <trkpt lat="44.35251" lon="4.81485">
        <ele>140.77</ele>
        <time>2021-01-12T10:20:47Z</time>
      </trkpt>
      <trkpt lat="44.35252" lon="4.81504">
        <ele>142.74</ele>
        <time>2021-01-12T10:21:09Z</time>
      </trkpt>
      <trkpt lat="44.35249" lon="4.81517">
        <ele>141.63</ele>
        <time>2021-01-12T10:21:27Z</time>
      </trkpt>
      <trkpt lat="44.35239" lon="4.81528">
        <ele>139.25</ele>
        <time>2021-01-12T10:21:43Z</time>
      </trkpt>
      <trkpt lat="44.35235" lon="4.81544">
        <ele>137</ele>
        <time>2021-01-12T10:21:58Z</time>
      </trkpt>
      <trkpt lat="44.35234" lon="4.81555">
        <ele>135.17</ele>
        <time>2021-01-12T10:22:15Z</time>
      </trkpt>
      <trkpt lat="44.35234" lon="4.81571">
        <ele>132.01</ele>
        <time>2021-01-12T10:22:39Z</time>
      </trkpt>
      <trkpt lat="44.35233" lon="4.81577">
        <ele>131.39</ele>
        <time>2021-01-12T10:22:46Z</time>
      </trkpt>
      <trkpt lat="44.35234" lon="4.81584">
        <ele>130.79</ele>
        <time>2021-01-12T10:22:57Z</time>
      </trkpt>
      <trkpt lat="44.35238" lon="4.81602">
        <ele>128.71</ele>
        <time>2021-01-12T10:23:17Z</time>
      </trkpt>
      <trkpt lat="44.35243" lon="4.81618">
        <ele>128.88</ele>
        <time>2021-01-12T10:23:41Z</time>
      </trkpt>
      <trkpt lat="44.35246" lon="4.81623">
        <ele>128.31</ele>
        <time>2021-01-12T10:23:48Z</time>
      </trkpt>
      <trkpt lat="44.35252" lon="4.81631">
        <ele>128.64</ele>
        <time>2021-01-12T10:24:02Z</time>
      </trkpt>
      <trkpt lat="44.35261" lon="4.81634">
        <ele>130.1</ele>
        <time>2021-01-12T10:24:17Z</time>
      </trkpt>
      <trkpt lat="44.35265" lon="4.81633">
        <ele>131.34</ele>
        <time>2021-01-12T10:24:35Z</time>
      </trkpt>
      <trkpt lat="44.3527" lon="4.81629">
        <ele>132.53</ele>
        <time>2021-01-12T10:24:52Z</time>
      </trkpt>
      <trkpt lat="44.35282" lon="4.81628">
        <ele>135.17</ele>
        <time>2021-01-12T10:25:12Z</time>
      </trkpt>
      <trkpt lat="44.35292" lon="4.81632">
        <ele>135.53</ele>
        <time>2021-01-12T10:25:25Z</time>
      </trkpt>
      <trkpt lat="44.35298" lon="4.81638">
        <ele>136.62</ele>
        <time>2021-01-12T10:25:46Z</time>
      </trkpt>
      <trkpt lat="44.35305" lon="4.81641">
        <ele>137.59</ele>
        <time>2021-01-12T10:26:08Z</time>
      </trkpt>
      <trkpt lat="44.35308" lon="4.81645">
        <ele>138.34</ele>
        <time>2021-01-12T10:26:31Z</time>
      </trkpt>
      <trkpt lat="44.35306" lon="4.81653">
        <ele>135.98</ele>
        <time>2021-01-12T10:26:52Z</time>
      </trkpt>
      <trkpt lat="44.35309" lon="4.8165">
        <ele>137.23</ele>
        <time>2021-01-12T10:27:16Z</time>
      </trkpt>
      <trkpt lat="44.35318" lon="4.81653">
        <ele>139.28</ele>
        <time>2021-01-12T10:27:36Z</time>
      </trkpt>
      <trkpt lat="44.35334" lon="4.81655">
        <ele>141.85</ele>
        <time>2021-01-12T10:27:55Z</time>
      </trkpt>
      <trkpt lat="44.35341" lon="4.81662">
        <ele>143.26</ele>
        <time>2021-01-12T10:28:14Z</time>
      </trkpt>
      <trkpt lat="44.35347" lon="4.81663">
        <ele>143.04</ele>
        <time>2021-01-12T10:28:37Z</time>
      </trkpt>
      <trkpt lat="44.35353" lon="4.81671">
        <ele>142.27</ele>
        <time>2021-01-12T10:29:00Z</time>
      </trkpt>
      <trkpt lat="44.35356" lon="4.8167">
        <ele>144.28</ele>
        <time>2021-01-12T10:29:21Z</time>
      </trkpt>
      <trkpt lat="44.35363" lon="4.81675">
        <ele>145.54</ele>
        <time>2021-01-12T10:29:38Z</time>
      </trkpt>
      <trkpt lat="44.35361" lon="4.8167">
        <ele>146.12</ele>
        <time>2021-01-12T10:29:59Z</time>
      </trkpt>
      <trkpt lat="44.35359" lon="4.81675">
        <ele>146.48</ele>
        <time>2021-01-12T10:30:21Z</time>
      </trkpt>
      <trkpt lat="44.35359" lon="4.81675">
        <ele>146.25</ele>
        <time>2021-01-12T10:30:26Z</time>
      </trkpt>
      <trkpt lat="44.35371" lon="4.8168">
        <ele>147.31</ele>
        <time>2021-01-12T10:30:49Z</time>
      </trkpt>
      <trkpt lat="44.35373" lon="4.81687">
        <ele>146.48</ele>
        <time>2021-01-12T10:31:05Z</time>
      </trkpt>
      <trkpt lat="44.35373" lon="4.81694">
        <ele>143.35</ele>
        <time>2021-01-12T10:31:33Z</time>
      </trkpt>
      <trkpt lat="44.35379" lon="4.817">
        <ele>145.16</ele>
        <time>2021-01-12T10:31:57Z</time>
      </trkpt>
      <trkpt lat="44.35378" lon="4.81702">
        <ele>144.66</ele>
        <time>2021-01-12T10:32:27Z</time>
      </trkpt>
      <trkpt lat="44.35375" lon="4.817">
        <ele>142.84</ele>
        <time>2021-01-12T10:32:49Z</time>
      </trkpt>
      <trkpt lat="44.35371" lon="4.81697">
        <ele>141.47</ele>
        <time>2021-01-12T10:33:04Z</time>
      </trkpt>
      <trkpt lat="44.35372" lon="4.817">
        <ele>142.23</ele>
        <time>2021-01-12T10:33:28Z</time>
      </trkpt>
      <trkpt lat="44.35372" lon="4.81703">
        <ele>144.7</ele>
        <time>2021-01-12T10:33:55Z</time>
      </trkpt>
      <trkpt lat="44.35364" lon="4.81698">
        <ele>145.9</ele>
        <time>2021-01-12T10:34:22Z</time>
      </trkpt>
      <trkpt lat="44.35368" lon="4.81701">
        <ele>146.04</ele>
        <time>2021-01-12T10:34:47Z</time>
      </trkpt>
      <trkpt lat="44.35364" lon="4.81714">
        <ele>149.4</ele>
        <time>2021-01-12T10:35:06Z</time>
      </trkpt>
      <trkpt lat="44.35357" lon="4.81714">
        <ele>152.21</ele>
        <time>2021-01-12T10:35:18Z</time>
      </trkpt>
      <trkpt lat="44.35353" lon="4.81713">
        <ele>152.68</ele>
        <time>2021-01-12T10:35:22Z</time>
      </trkpt>
      <trkpt lat="44.35348" lon="4.81714">
        <ele>153.62</ele>
        <time>2021-01-12T10:35:40Z</time>
      </trkpt>
      <trkpt lat="44.35359" lon="4.81726">
        <ele>156.48</ele>
        <time>2021-01-12T10:36:01Z</time>
      </trkpt>
      <trkpt lat="44.35368" lon="4.81742">
        <ele>159.6</ele>
        <time>2021-01-12T10:36:20Z</time>
      </trkpt>
      <trkpt lat="44.35372" lon="4.81756">
        <ele>162.64</ele>
        <time>2021-01-12T10:36:34Z</time>
      </trkpt>
      <trkpt lat="44.35384" lon="4.81769">
        <ele>164.52</ele>
        <time>2021-01-12T10:36:54Z</time>
      </trkpt>
      <trkpt lat="44.35393" lon="4.81779">
        <ele>165.13</ele>
        <time>2021-01-12T10:37:12Z</time>
      </trkpt>
      <trkpt lat="44.35399" lon="4.8179">
        <ele>166.47</ele>
        <time>2021-01-12T10:37:24Z</time>
      </trkpt>
      <trkpt lat="44.35402" lon="4.81802">
        <ele>169.62</ele>
        <time>2021-01-12T10:37:38Z</time>
      </trkpt>
      <trkpt lat="44.35402" lon="4.81817">
        <ele>172.12</ele>
        <time>2021-01-12T10:37:55Z</time>
      </trkpt>
      <trkpt lat="44.35398" lon="4.81826">
        <ele>173.6</ele>
        <time>2021-01-12T10:38:14Z</time>
      </trkpt>
      <trkpt lat="44.35397" lon="4.81831">
        <ele>174.11</ele>
        <time>2021-01-12T10:38:25Z</time>
      </trkpt>
      <trkpt lat="44.35392" lon="4.81837">
        <ele>173.66</ele>
        <time>2021-01-12T10:38:45Z</time>
      </trkpt>
      <trkpt lat="44.3539" lon="4.81846">
        <ele>171.13</ele>
        <time>2021-01-12T10:39:05Z</time>
      </trkpt>
      <trkpt lat="44.35379" lon="4.81852">
        <ele>168.06</ele>
        <time>2021-01-12T10:39:21Z</time>
      </trkpt>
      <trkpt lat="44.35377" lon="4.8185">
        <ele>166.69</ele>
        <time>2021-01-12T10:39:30Z</time>
      </trkpt>
      <trkpt lat="44.35373" lon="4.81853">
        <ele>165.38</ele>
        <time>2021-01-12T10:39:48Z</time>
      </trkpt>
      <trkpt lat="44.35362" lon="4.81857">
        <ele>162.97</ele>
        <time>2021-01-12T10:40:06Z</time>
      </trkpt>
      <trkpt lat="44.35356" lon="4.81857">
        <ele>160.66</ele>
        <time>2021-01-12T10:40:21Z</time>
      </trkpt>
      <trkpt lat="44.35351" lon="4.81858">
        <ele>159.19</ele>
        <time>2021-01-12T10:40:37Z</time>
      </trkpt>
      <trkpt lat="44.35349" lon="4.81856">
        <ele>158.68</ele>
        <time>2021-01-12T10:40:57Z</time>
      </trkpt>
      <trkpt lat="44.35338" lon="4.81863">
        <ele>156.16</ele>
        <time>2021-01-12T10:41:14Z</time>
      </trkpt>
      <trkpt lat="44.35329" lon="4.81866">
        <ele>153.13</ele>
        <time>2021-01-12T10:41:30Z</time>
      </trkpt>
      <trkpt lat="44.35315" lon="4.81873">
        <ele>150.05</ele>
        <time>2021-01-12T10:41:43Z</time>
      </trkpt>
      <trkpt lat="44.35309" lon="4.81876">
        <ele>148.65</ele>
        <time>2021-01-12T10:41:50Z</time>
      </trkpt>
      <trkpt lat="44.35298" lon="4.81871">
        <ele>147.27</ele>
        <time>2021-01-12T10:42:17Z</time>
      </trkpt>
      <trkpt lat="44.35287" lon="4.81866">
        <ele>145.45</ele>
        <time>2021-01-12T10:42:35Z</time>
      </trkpt>
      <trkpt lat="44.35277" lon="4.81871">
        <ele>144.03</ele>
        <time>2021-01-12T10:42:55Z</time>
      </trkpt>
      <trkpt lat="44.35268" lon="4.81872">
        <ele>141.81</ele>
        <time>2021-01-12T10:43:15Z</time>
      </trkpt>
      <trkpt lat="44.35261" lon="4.81881">
        <ele>139.48</ele>
        <time>2021-01-12T10:43:32Z</time>
      </trkpt>
      <trkpt lat="44.35255" lon="4.81882">
        <ele>137.62</ele>
        <time>2021-01-12T10:43:43Z</time>
      </trkpt>
      <trkpt lat="44.35247" lon="4.81884">
        <ele>135.68</ele>
        <time>2021-01-12T10:44:05Z</time>
      </trkpt>
      <trkpt lat="44.35236" lon="4.81888">
        <ele>134.08</ele>
        <time>2021-01-12T10:44:27Z</time>
      </trkpt>
      <trkpt lat="44.35226" lon="4.81901">
        <ele>131.48</ele>
        <time>2021-01-12T10:44:47Z</time>
      </trkpt>
      <trkpt lat="44.35218" lon="4.81911">
        <ele>128.28</ele>
        <time>2021-01-12T10:45:03Z</time>
      </trkpt>
      <trkpt lat="44.35209" lon="4.8191">
        <ele>126.02</ele>
        <time>2021-01-12T10:45:23Z</time>
      </trkpt>
      <trkpt lat="44.35198" lon="4.81903">
        <ele>124.07</ele>
        <time>2021-01-12T10:45:45Z</time>
      </trkpt>
      <trkpt lat="44.35197" lon="4.81902">
        <ele>123.89</ele>
        <time>2021-01-12T10:45:47Z</time>
      </trkpt>
      <trkpt lat="44.35178" lon="4.81891">
        <ele>121.69</ele>
        <time>2021-01-12T10:46:07Z</time>
      </trkpt>
      <trkpt lat="44.3517" lon="4.81894">
        <ele>120.88</ele>
        <time>2021-01-12T10:46:25Z</time>
      </trkpt>
      <trkpt lat="44.35162" lon="4.81893">
        <ele>119.55</ele>
        <time>2021-01-12T10:46:37Z</time>
      </trkpt>
      <trkpt lat="44.35145" lon="4.81891">
        <ele>117.79</ele>
        <time>2021-01-12T10:47:01Z</time>
      </trkpt>
      <trkpt lat="44.35142" lon="4.81894">
        <ele>117.1</ele>
        <time>2021-01-12T10:47:11Z</time>
      </trkpt>
      <trkpt lat="44.3513" lon="4.81902">
        <ele>115.6</ele>
        <time>2021-01-12T10:47:27Z</time>
      </trkpt>
      <trkpt lat="44.3512" lon="4.81894">
        <ele>113.75</ele>
        <time>2021-01-12T10:47:41Z</time>
      </trkpt>
      <trkpt lat="44.35115" lon="4.81891">
        <ele>113.13</ele>
        <time>2021-01-12T10:47:48Z</time>
      </trkpt>
      <trkpt lat="44.35106" lon="4.81885">
        <ele>113.76</ele>
        <time>2021-01-12T10:47:58Z</time>
      </trkpt>
      <trkpt lat="44.35095" lon="4.81886">
        <ele>112.98</ele>
        <time>2021-01-12T10:48:18Z</time>
      </trkpt>
      <trkpt lat="44.35088" lon="4.81888">
        <ele>112.78</ele>
        <time>2021-01-12T10:48:38Z</time>
      </trkpt>
      <trkpt lat="44.35079" lon="4.81898">
        <ele>112.18</ele>
        <time>2021-01-12T10:48:59Z</time>
      </trkpt>
      <trkpt lat="44.35078" lon="4.81898">
        <ele>112.09</ele>
        <time>2021-01-12T10:49:02Z</time>
      </trkpt>
      <trkpt lat="44.35071" lon="4.81907">
        <ele>111.75</ele>
        <time>2021-01-12T10:49:27Z</time>
      </trkpt>
      <trkpt lat="44.35059" lon="4.8191">
        <ele>110.27</ele>
        <time>2021-01-12T10:49:44Z</time>
      </trkpt>
      <trkpt lat="44.35054" lon="4.8191">
        <ele>110.54</ele>
        <time>2021-01-12T10:50:11Z</time>
      </trkpt>
      <trkpt lat="44.35054" lon="4.81911">
        <ele>110.53</ele>
        <time>2021-01-12T10:50:42Z</time>
      </trkpt>
      <trkpt lat="44.3505" lon="4.81914">
        <ele>110.18</ele>
        <time>2021-01-12T10:51:11Z</time>
      </trkpt>
      <trkpt lat="44.35046" lon="4.81925">
        <ele>109.64</ele>
        <time>2021-01-12T10:51:33Z</time>
      </trkpt>
      <trkpt lat="44.35047" lon="4.81951">
        <ele>107.94</ele>
        <time>2021-01-12T10:51:54Z</time>
      </trkpt>
      <trkpt lat="44.35047" lon="4.81973">
        <ele>106.55</ele>
        <time>2021-01-12T10:52:13Z</time>
      </trkpt>
      <trkpt lat="44.35047" lon="4.81989">
        <ele>105.85</ele>
        <time>2021-01-12T10:52:33Z</time>
      </trkpt>
      <trkpt lat="44.35048" lon="4.81992">
        <ele>105.53</ele>
        <time>2021-01-12T10:52:39Z</time>
      </trkpt>
      <trkpt lat="44.35051" lon="4.81999">
        <ele>105.71</ele>
        <time>2021-01-12T10:53:02Z</time>
      </trkpt>
      <trkpt lat="44.35057" lon="4.82011">
        <ele>105.05</ele>
        <time>2021-01-12T10:53:19Z</time>
      </trkpt>
      <trkpt lat="44.35056" lon="4.82024">
        <ele>105.52</ele>
        <time>2021-01-12T10:53:34Z</time>
      </trkpt>
      <trkpt lat="44.35057" lon="4.82035">
        <ele>105.17</ele>
        <time>2021-01-12T10:53:47Z</time>
      </trkpt>
      <trkpt lat="44.35058" lon="4.82043">
        <ele>104.91</ele>
        <time>2021-01-12T10:53:55Z</time>
      </trkpt>
      <trkpt lat="44.35059" lon="4.82058">
        <ele>104.89</ele>
        <time>2021-01-12T10:54:07Z</time>
      </trkpt>
      <trkpt lat="44.35064" lon="4.82073">
        <ele>104.81</ele>
        <time>2021-01-12T10:54:26Z</time>
      </trkpt>
      <trkpt lat="44.35065" lon="4.82078">
        <ele>104.86</ele>
        <time>2021-01-12T10:54:29Z</time>
      </trkpt>
      <trkpt lat="44.35064" lon="4.82081">
        <ele>104.9</ele>
        <time>2021-01-12T10:54:31Z</time>
      </trkpt>
      <trkpt lat="44.35064" lon="4.82084">
        <ele>104.95</ele>
        <time>2021-01-12T10:54:33Z</time>
      </trkpt>
      <trkpt lat="44.35065" lon="4.82098">
        <ele>105.14</ele>
        <time>2021-01-12T10:54:49Z</time>
      </trkpt>
      <trkpt lat="44.35065" lon="4.8211">
        <ele>105.05</ele>
        <time>2021-01-12T10:55:05Z</time>
      </trkpt>
      <trkpt lat="44.35063" lon="4.8212">
        <ele>105.06</ele>
        <time>2021-01-12T10:55:27Z</time>
      </trkpt>
      <trkpt lat="44.35063" lon="4.82121">
        <ele>105.09</ele>
        <time>2021-01-12T10:55:28Z</time>
      </trkpt>
      <trkpt lat="44.35066" lon="4.82119">
        <ele>104.96</ele>
        <time>2021-01-12T10:55:51Z</time>
      </trkpt>
      <trkpt lat="44.35061" lon="4.82122">
        <ele>105.22</ele>
        <time>2021-01-12T10:56:14Z</time>
      </trkpt>
      <trkpt lat="44.35055" lon="4.82121">
        <ele>104.99</ele>
        <time>2021-01-12T10:56:20Z</time>
      </trkpt>
      <trkpt lat="44.35029" lon="4.82121">
        <ele>104.64</ele>
        <time>2021-01-12T10:56:45Z</time>
      </trkpt>
      <trkpt lat="44.35019" lon="4.82123">
        <ele>104.41</ele>
        <time>2021-01-12T10:56:53Z</time>
      </trkpt>
      <trkpt lat="44.35012" lon="4.82122">
        <ele>104.11</ele>
        <time>2021-01-12T10:56:59Z</time>
      </trkpt>
      <trkpt lat="44.35003" lon="4.82124">
        <ele>103.89</ele>
        <time>2021-01-12T10:57:07Z</time>
      </trkpt>
      <trkpt lat="44.34995" lon="4.82123">
        <ele>103.67</ele>
        <time>2021-01-12T10:57:14Z</time>
      </trkpt>
      <trkpt lat="44.3498" lon="4.82124">
        <ele>104.07</ele>
        <time>2021-01-12T10:57:29Z</time>
      </trkpt>
      <trkpt lat="44.3495" lon="4.82126">
        <ele>101.85</ele>
        <time>2021-01-12T10:57:52Z</time>
      </trkpt>
      <trkpt lat="44.34945" lon="4.82126">
        <ele>101.46</ele>
        <time>2021-01-12T10:57:55Z</time>
      </trkpt>
      <trkpt lat="44.34937" lon="4.8213">
        <ele>101.16</ele>
        <time>2021-01-12T10:58:02Z</time>
      </trkpt>
      <trkpt lat="44.34928" lon="4.82132">
        <ele>100.84</ele>
        <time>2021-01-12T10:58:13Z</time>
      </trkpt>
      <trkpt lat="44.34927" lon="4.82133">
        <ele>100.22</ele>
        <time>2021-01-12T10:58:38Z</time>
      </trkpt>
      <trkpt lat="44.34923" lon="4.82113">
        <ele>99.93</ele>
        <time>2021-01-12T10:59:01Z</time>
      </trkpt>
      <trkpt lat="44.34917" lon="4.82095">
        <ele>99.47</ele>
        <time>2021-01-12T10:59:14Z</time>
      </trkpt>
      <trkpt lat="44.34914" lon="4.82068">
        <ele>99.45</ele>
        <time>2021-01-12T10:59:32Z</time>
      </trkpt>
      <trkpt lat="44.34913" lon="4.82053">
        <ele>99.15</ele>
        <time>2021-01-12T10:59:39Z</time>
      </trkpt>
      <trkpt lat="44.34914" lon="4.82027">
        <ele>99.12</ele>
        <time>2021-01-12T10:59:52Z</time>
      </trkpt>
      <trkpt lat="44.34914" lon="4.8202">
        <ele>99.2</ele>
        <time>2021-01-12T10:59:55Z</time>
      </trkpt>
      <trkpt lat="44.34916" lon="4.81991">
        <ele>98.84</ele>
        <time>2021-01-12T11:00:11Z</time>
      </trkpt>
      <trkpt lat="44.34917" lon="4.81962">
        <ele>99</ele>
        <time>2021-01-12T11:00:28Z</time>
      </trkpt>
      <trkpt lat="44.34919" lon="4.81928">
        <ele>98.85</ele>
        <time>2021-01-12T11:00:48Z</time>
      </trkpt>
      <trkpt lat="44.34915" lon="4.81889">
        <ele>98.25</ele>
        <time>2021-01-12T11:01:11Z</time>
      </trkpt>
      <trkpt lat="44.349" lon="4.81871">
        <ele>98.34</ele>
        <time>2021-01-12T11:01:32Z</time>
      </trkpt>
      <trkpt lat="44.34895" lon="4.81863">
        <ele>98.56</ele>
        <time>2021-01-12T11:01:38Z</time>
      </trkpt>
      <trkpt lat="44.34879" lon="4.81843">
        <ele>97.72</ele>
        <time>2021-01-12T11:01:58Z</time>
      </trkpt>
      <trkpt lat="44.34869" lon="4.81835">
        <ele>98.12</ele>
        <time>2021-01-12T11:02:06Z</time>
      </trkpt>
      <trkpt lat="44.3485" lon="4.81821">
        <ele>98.17</ele>
        <time>2021-01-12T11:02:21Z</time>
      </trkpt>
      <trkpt lat="44.34833" lon="4.81809">
        <ele>98.33</ele>
        <time>2021-01-12T11:02:37Z</time>
      </trkpt>
      <trkpt lat="44.34823" lon="4.81802">
        <ele>97.79</ele>
        <time>2021-01-12T11:02:45Z</time>
      </trkpt>
      <trkpt lat="44.34808" lon="4.81791">
        <ele>97.91</ele>
        <time>2021-01-12T11:02:58Z</time>
      </trkpt>
      <trkpt lat="44.34791" lon="4.81781">
        <ele>98.39</ele>
        <time>2021-01-12T11:03:17Z</time>
      </trkpt>
      <trkpt lat="44.34788" lon="4.81778">
        <ele>98.57</ele>
        <time>2021-01-12T11:03:20Z</time>
      </trkpt>
      <trkpt lat="44.34773" lon="4.81766">
        <ele>98.84</ele>
        <time>2021-01-12T11:03:33Z</time>
      </trkpt>
      <trkpt lat="44.34756" lon="4.81758">
        <ele>99.63</ele>
        <time>2021-01-12T11:03:47Z</time>
      </trkpt>
      <trkpt lat="44.34748" lon="4.81758">
        <ele>99.4</ele>
        <time>2021-01-12T11:03:53Z</time>
      </trkpt>
      <trkpt lat="44.34737" lon="4.81753">
        <ele>99.42</ele>
        <time>2021-01-12T11:04:06Z</time>
      </trkpt>
      <trkpt lat="44.34728" lon="4.81737">
        <ele>99.57</ele>
        <time>2021-01-12T11:04:25Z</time>
      </trkpt>
      <trkpt lat="44.34731" lon="4.81729">
        <ele>99.78</ele>
        <time>2021-01-12T11:04:34Z</time>
      </trkpt>
      <trkpt lat="44.34734" lon="4.81726">
        <ele>99.63</ele>
        <time>2021-01-12T11:04:57Z</time>
      </trkpt>
      <trkpt lat="44.34732" lon="4.81717">
        <ele>99.86</ele>
        <time>2021-01-12T11:05:09Z</time>
      </trkpt>
      <trkpt lat="44.34719" lon="4.81685">
        <ele>99.84</ele>
        <time>2021-01-12T11:05:32Z</time>
      </trkpt>
      <trkpt lat="44.34706" lon="4.81651">
        <ele>99.71</ele>
        <time>2021-01-12T11:05:52Z</time>
      </trkpt>
      <trkpt lat="44.34703" lon="4.81634">
        <ele>99.86</ele>
        <time>2021-01-12T11:06:03Z</time>
      </trkpt>
      <trkpt lat="44.34697" lon="4.81616">
        <ele>100.19</ele>
        <time>2021-01-12T11:06:22Z</time>
      </trkpt>
      <trkpt lat="44.34696" lon="4.81613">
        <ele>100.29</ele>
        <time>2021-01-12T11:06:24Z</time>
      </trkpt>
      <trkpt lat="44.34688" lon="4.81595">
        <ele>100.28</ele>
        <time>2021-01-12T11:06:46Z</time>
      </trkpt>
      <trkpt lat="44.34679" lon="4.81574">
        <ele>100.1</ele>
        <time>2021-01-12T11:07:05Z</time>
      </trkpt>
      <trkpt lat="44.34673" lon="4.81557">
        <ele>99.7</ele>
        <time>2021-01-12T11:07:25Z</time>
      </trkpt>
      <trkpt lat="44.34666" lon="4.81538">
        <ele>99.55</ele>
        <time>2021-01-12T11:07:43Z</time>
      </trkpt>
      <trkpt lat="44.34655" lon="4.8151">
        <ele>99.59</ele>
        <time>2021-01-12T11:08:00Z</time>
      </trkpt>
      <trkpt lat="44.3465" lon="4.81496">
        <ele>100.26</ele>
        <time>2021-01-12T11:08:30Z</time>
      </trkpt>
      <trkpt lat="44.34645" lon="4.8148">
        <ele>100.37</ele>
        <time>2021-01-12T11:08:49Z</time>
      </trkpt>
      <trkpt lat="44.34631" lon="4.81445">
        <ele>100.41</ele>
        <time>2021-01-12T11:09:11Z</time>
      </trkpt>
      <trkpt lat="44.34621" lon="4.8141">
        <ele>100.15</ele>
        <time>2021-01-12T11:09:33Z</time>
      </trkpt>
      <trkpt lat="44.34612" lon="4.81384">
        <ele>100.25</ele>
        <time>2021-01-12T11:09:54Z</time>
      </trkpt>
      <trkpt lat="44.34596" lon="4.81359">
        <ele>99.01</ele>
        <time>2021-01-12T11:10:16Z</time>
      </trkpt>
      <trkpt lat="44.34584" lon="4.81347">
        <ele>97.95</ele>
        <time>2021-01-12T11:10:30Z</time>
      </trkpt>
      <trkpt lat="44.34574" lon="4.81336">
        <ele>98.07</ele>
        <time>2021-01-12T11:10:42Z</time>
      </trkpt>
      <trkpt lat="44.34562" lon="4.81323">
        <ele>97.66</ele>
        <time>2021-01-12T11:10:55Z</time>
      </trkpt>
      <trkpt lat="44.34553" lon="4.81312">
        <ele>97.7</ele>
        <time>2021-01-12T11:11:02Z</time>
      </trkpt>
      <trkpt lat="44.34552" lon="4.81303">
        <ele>97.57</ele>
        <time>2021-01-12T11:11:08Z</time>
      </trkpt>
      <trkpt lat="44.34551" lon="4.81299">
        <ele>97.47</ele>
        <time>2021-01-12T11:11:11Z</time>
      </trkpt>
      <trkpt lat="44.34542" lon="4.81296">
        <ele>97.45</ele>
        <time>2021-01-12T11:11:29Z</time>
      </trkpt>
      <trkpt lat="44.34537" lon="4.81291">
        <ele>97.44</ele>
        <time>2021-01-12T11:11:39Z</time>
      </trkpt>
      <trkpt lat="44.34549" lon="4.81295">
        <ele>97.41</ele>
        <time>2021-01-12T11:12:00Z</time>
      </trkpt>
      <trkpt lat="44.34552" lon="4.81294">
        <ele>97.69</ele>
        <time>2021-01-12T11:12:24Z</time>
      </trkpt>
      <trkpt lat="44.34558" lon="4.81291">
        <ele>97.31</ele>
        <time>2021-01-12T11:12:31Z</time>
      </trkpt>
      <trkpt lat="44.3456" lon="4.81291">
        <ele>97.31</ele>
        <time>2021-01-12T11:12:33Z</time>
      </trkpt>
      <trkpt lat="44.34568" lon="4.81291">
        <ele>97.95</ele>
        <time>2021-01-12T11:12:48Z</time>
      </trkpt>
      <trkpt lat="44.34583" lon="4.81291">
        <ele>99.18</ele>
        <time>2021-01-12T11:13:08Z</time>
      </trkpt>
      <trkpt lat="44.34586" lon="4.81294">
        <ele>99.43</ele>
        <time>2021-01-12T11:13:30Z</time>
      </trkpt>
      <trkpt lat="44.34579" lon="4.81295">
        <ele>99.8</ele>
        <time>2021-01-12T11:13:38Z</time>
      </trkpt>
      <trkpt lat="44.34576" lon="4.81288">
        <ele>99.36</ele>
        <time>2021-01-12T11:13:57Z</time>
      </trkpt>
      <trkpt lat="44.3453" lon="4.81274">
        <ele>114.1</ele>
      </trkpt>
      <trkpt lat="44.34479" lon="4.8102">
        <ele>114.9</ele>
      </trkpt>
      <trkpt lat="44.34416" lon="4.80833">
        <ele>114</ele>
      </trkpt>
      <trkpt lat="44.34357" lon="4.80645">
        <ele>114</ele>
      </trkpt>
      <trkpt lat="44.34344" lon="4.80469">
        <ele>112.3</ele>
      </trkpt>
      <trkpt lat="44.34325" lon="4.80274">
        <ele>112.1</ele>
      </trkpt>
      <trkpt lat="44.34303" lon="4.80133">
        <ele>110.6</ele>
      </trkpt>
      <trkpt lat="44.34291" lon="4.80023">
        <ele>109.2</ele>
      </trkpt>
      <trkpt lat="44.34279" lon="4.79928">
        <ele>110.8</ele>
      </trkpt>
      <trkpt lat="44.34291" lon="4.79919">
        <ele>111.4</ele>
      </trkpt>
      <trkpt lat="44.34338" lon="4.79941">
        <ele>112.4</ele>
      </trkpt>
      <trkpt lat="44.34392" lon="4.79959">
        <ele>96.95</ele>
        <time>2021-01-12T12:14:48Z</time>
      </trkpt>
      <trkpt lat="44.34406" lon="4.79966">
        <ele>97.56</ele>
        <time>2021-01-12T12:15:00Z</time>
      </trkpt>
      <trkpt lat="44.34425" lon="4.79976">
        <ele>97.72</ele>
        <time>2021-01-12T12:15:25Z</time>
      </trkpt>
      <trkpt lat="44.34435" lon="4.79979">
        <ele>98.13</ele>
        <time>2021-01-12T12:15:46Z</time>
      </trkpt>
      <trkpt lat="44.34451" lon="4.79988">
        <ele>97.69</ele>
        <time>2021-01-12T12:16:08Z</time>
      </trkpt>
      <trkpt lat="44.34476" lon="4.80002">
        <ele>98</ele>
        <time>2021-01-12T12:16:32Z</time>
      </trkpt>
      <trkpt lat="44.34503" lon="4.80009">
        <ele>98.68</ele>
        <time>2021-01-12T12:16:53Z</time>
      </trkpt>
      <trkpt lat="44.34515" lon="4.79998">
        <ele>100.51</ele>
        <time>2021-01-12T12:17:10Z</time>
      </trkpt>
      <trkpt lat="44.34515" lon="4.79993">
        <ele>100.64</ele>
        <time>2021-01-12T12:17:13Z</time>
      </trkpt>
      <trkpt lat="44.34525" lon="4.79961">
        <ele>102.78</ele>
        <time>2021-01-12T12:17:37Z</time>
      </trkpt>
      <trkpt lat="44.34531" lon="4.79925">
        <ele>105.38</ele>
        <time>2021-01-12T12:18:01Z</time>
      </trkpt>
      <trkpt lat="44.3454" lon="4.79898">
        <ele>107.61</ele>
        <time>2021-01-12T12:18:21Z</time>
      </trkpt>
      <trkpt lat="44.34546" lon="4.79876">
        <ele>109.54</ele>
        <time>2021-01-12T12:18:39Z</time>
      </trkpt>
      <trkpt lat="44.34551" lon="4.79856">
        <ele>111.47</ele>
        <time>2021-01-12T12:18:49Z</time>
      </trkpt>
      <trkpt lat="44.34554" lon="4.79846">
        <ele>113.08</ele>
        <time>2021-01-12T12:19:06Z</time>
      </trkpt>
      <trkpt lat="44.34557" lon="4.79834">
        <ele>113.93</ele>
        <time>2021-01-12T12:19:21Z</time>
      </trkpt>
      <trkpt lat="44.3456" lon="4.79828">
        <ele>114.14</ele>
        <time>2021-01-12T12:19:26Z</time>
      </trkpt>
      <trkpt lat="44.3456" lon="4.79816">
        <ele>114.66</ele>
        <time>2021-01-12T12:19:40Z</time>
      </trkpt>
      <trkpt lat="44.34558" lon="4.79816">
        <ele>115.48</ele>
        <time>2021-01-12T12:20:05Z</time>
      </trkpt>
      <trkpt lat="44.34558" lon="4.79816">
        <ele>115.11</ele>
        <time>2021-01-12T12:20:27Z</time>
      </trkpt>
      <trkpt lat="44.34562" lon="4.79802">
        <ele>118.11</ele>
        <time>2021-01-12T12:20:46Z</time>
      </trkpt>
      <trkpt lat="44.34557" lon="4.7979">
        <ele>120.09</ele>
        <time>2021-01-12T12:21:05Z</time>
      </trkpt>
      <trkpt lat="44.34553" lon="4.7978">
        <ele>121.5</ele>
        <time>2021-01-12T12:21:19Z</time>
      </trkpt>
      <trkpt lat="44.34543" lon="4.79768">
        <ele>124.05</ele>
        <time>2021-01-12T12:21:36Z</time>
      </trkpt>
      <trkpt lat="44.34532" lon="4.79753">
        <ele>125.37</ele>
        <time>2021-01-12T12:21:58Z</time>
      </trkpt>
      <trkpt lat="44.34528" lon="4.79748">
        <ele>125.88</ele>
        <time>2021-01-12T12:22:03Z</time>
      </trkpt>
      <trkpt lat="44.34519" lon="4.79735">
        <ele>127.24</ele>
        <time>2021-01-12T12:22:19Z</time>
      </trkpt>
      <trkpt lat="44.34519" lon="4.79726">
        <ele>129.1</ele>
        <time>2021-01-12T12:22:34Z</time>
      </trkpt>
      <trkpt lat="44.34514" lon="4.79717">
        <ele>130.29</ele>
        <time>2021-01-12T12:22:56Z</time>
      </trkpt>
      <trkpt lat="44.34504" lon="4.79705">
        <ele>133.3</ele>
        <time>2021-01-12T12:23:14Z</time>
      </trkpt>
      <trkpt lat="44.34491" lon="4.7968">
        <ele>133.84</ele>
        <time>2021-01-12T12:23:34Z</time>
      </trkpt>
      <trkpt lat="44.34482" lon="4.79659">
        <ele>134.82</ele>
        <time>2021-01-12T12:23:55Z</time>
      </trkpt>
      <trkpt lat="44.34486" lon="4.79634">
        <ele>136.27</ele>
        <time>2021-01-12T12:24:16Z</time>
      </trkpt>
      <trkpt lat="44.34504" lon="4.79628">
        <ele>138.15</ele>
        <time>2021-01-12T12:24:36Z</time>
      </trkpt>
      <trkpt lat="44.34522" lon="4.79643">
        <ele>141.22</ele>
        <time>2021-01-12T12:24:57Z</time>
      </trkpt>
      <trkpt lat="44.34528" lon="4.79655">
        <ele>144.24</ele>
        <time>2021-01-12T12:25:12Z</time>
      </trkpt>
      <trkpt lat="44.34533" lon="4.79645">
        <ele>147.36</ele>
        <time>2021-01-12T12:25:27Z</time>
      </trkpt>
      <trkpt lat="44.34536" lon="4.79626">
        <ele>150.47</ele>
        <time>2021-01-12T12:25:46Z</time>
      </trkpt>
      <trkpt lat="44.34542" lon="4.79609">
        <ele>153.53</ele>
        <time>2021-01-12T12:26:05Z</time>
      </trkpt>
      <trkpt lat="44.34545" lon="4.79585">
        <ele>156.48</ele>
        <time>2021-01-12T12:26:26Z</time>
      </trkpt>
      <trkpt lat="44.34549" lon="4.79557">
        <ele>159</ele>
        <time>2021-01-12T12:26:49Z</time>
      </trkpt>
      <trkpt lat="44.34551" lon="4.79524">
        <ele>161.66</ele>
        <time>2021-01-12T12:27:12Z</time>
      </trkpt>
      <trkpt lat="44.34551" lon="4.79515">
        <ele>162.49</ele>
        <time>2021-01-12T12:27:17Z</time>
      </trkpt>
      <trkpt lat="44.34551" lon="4.79511">
        <ele>163.15</ele>
        <time>2021-01-12T12:27:20Z</time>
      </trkpt>
      <trkpt lat="44.34552" lon="4.79498">
        <ele>164.82</ele>
        <time>2021-01-12T12:27:34Z</time>
      </trkpt>
      <trkpt lat="44.3455" lon="4.79488">
        <ele>165.42</ele>
        <time>2021-01-12T12:27:57Z</time>
      </trkpt>
      <trkpt lat="44.34553" lon="4.79477">
        <ele>166.44</ele>
        <time>2021-01-12T12:28:17Z</time>
      </trkpt>
      <trkpt lat="44.34564" lon="4.7947">
        <ele>168.69</ele>
        <time>2021-01-12T12:28:36Z</time>
      </trkpt>
      <trkpt lat="44.34575" lon="4.79478">
        <ele>171.24</ele>
        <time>2021-01-12T12:28:56Z</time>
      </trkpt>
      <trkpt lat="44.34582" lon="4.79476">
        <ele>172.22</ele>
        <time>2021-01-12T12:29:19Z</time>
      </trkpt>
      <trkpt lat="44.34587" lon="4.79473">
        <ele>172.25</ele>
        <time>2021-01-12T12:29:39Z</time>
      </trkpt>
      <trkpt lat="44.34589" lon="4.79473">
        <ele>172.03</ele>
        <time>2021-01-12T12:30:05Z</time>
      </trkpt>
      <trkpt lat="44.34591" lon="4.79473">
        <ele>171.74</ele>
        <time>2021-01-12T12:30:35Z</time>
      </trkpt>
      <trkpt lat="44.3459" lon="4.79473">
        <ele>172.62</ele>
        <time>2021-01-12T12:31:03Z</time>
      </trkpt>
      <trkpt lat="44.34591" lon="4.79472">
        <ele>172.49</ele>
        <time>2021-01-12T12:31:29Z</time>
      </trkpt>
      <trkpt lat="44.34592" lon="4.79472">
        <ele>172.27</ele>
        <time>2021-01-12T12:32:03Z</time>
      </trkpt>
      <trkpt lat="44.34592" lon="4.79471">
        <ele>172.6</ele>
        <time>2021-01-12T12:32:31Z</time>
      </trkpt>
      <trkpt lat="44.34591" lon="4.79471">
        <ele>172.65</ele>
        <time>2021-01-12T12:32:57Z</time>
      </trkpt>
      <trkpt lat="44.34587" lon="4.7947">
        <ele>172.37</ele>
        <time>2021-01-12T12:33:25Z</time>
      </trkpt>
      <trkpt lat="44.34587" lon="4.79474">
        <ele>172.41</ele>
        <time>2021-01-12T12:33:55Z</time>
      </trkpt>
      <trkpt lat="44.34579" lon="4.79478">
        <ele>172.38</ele>
        <time>2021-01-12T12:34:18Z</time>
      </trkpt>
      <trkpt lat="44.34588" lon="4.79492">
        <ele>173.94</ele>
        <time>2021-01-12T12:34:36Z</time>
      </trkpt>
      <trkpt lat="44.34599" lon="4.79501">
        <ele>177.01</ele>
        <time>2021-01-12T12:34:52Z</time>
      </trkpt>
      <trkpt lat="44.34594" lon="4.79509">
        <ele>179.54</ele>
        <time>2021-01-12T12:35:07Z</time>
      </trkpt>
      <trkpt lat="44.34592" lon="4.79509">
        <ele>180.42</ele>
        <time>2021-01-12T12:35:35Z</time>
      </trkpt>
      <trkpt lat="44.34592" lon="4.79509">
        <ele>180.66</ele>
        <time>2021-01-12T12:36:08Z</time>
      </trkpt>
      <trkpt lat="44.34591" lon="4.7951">
        <ele>180.31</ele>
        <time>2021-01-12T12:36:35Z</time>
      </trkpt>
      <trkpt lat="44.34594" lon="4.79509">
        <ele>180.66</ele>
        <time>2021-01-12T12:37:01Z</time>
      </trkpt>
      <trkpt lat="44.34605" lon="4.79518">
        <ele>180.89</ele>
        <time>2021-01-12T12:37:20Z</time>
      </trkpt>
      <trkpt lat="44.3461" lon="4.79528">
        <ele>183.18</ele>
        <time>2021-01-12T12:37:31Z</time>
      </trkpt>
      <trkpt lat="44.34613" lon="4.79543">
        <ele>186.24</ele>
        <time>2021-01-12T12:37:47Z</time>
      </trkpt>
      <trkpt lat="44.34608" lon="4.79567">
        <ele>188.17</ele>
        <time>2021-01-12T12:38:07Z</time>
      </trkpt>
      <trkpt lat="44.34612" lon="4.79577">
        <ele>188.19</ele>
        <time>2021-01-12T12:38:18Z</time>
      </trkpt>
      <trkpt lat="44.34623" lon="4.79596">
        <ele>188.33</ele>
        <time>2021-01-12T12:38:33Z</time>
      </trkpt>
      <trkpt lat="44.34634" lon="4.79608">
        <ele>187.91</ele>
        <time>2021-01-12T12:38:49Z</time>
      </trkpt>
      <trkpt lat="44.34657" lon="4.79628">
        <ele>188.47</ele>
        <time>2021-01-12T12:39:13Z</time>
      </trkpt>
      <trkpt lat="44.34665" lon="4.79636">
        <ele>188.31</ele>
        <time>2021-01-12T12:39:22Z</time>
      </trkpt>
      <trkpt lat="44.3467" lon="4.7964">
        <ele>188.2</ele>
        <time>2021-01-12T12:39:28Z</time>
      </trkpt>
      <trkpt lat="44.3468" lon="4.79656">
        <ele>187.48</ele>
        <time>2021-01-12T12:39:40Z</time>
      </trkpt>
      <trkpt lat="44.34689" lon="4.79668">
        <ele>187.38</ele>
        <time>2021-01-12T12:39:50Z</time>
      </trkpt>
      <trkpt lat="44.34705" lon="4.79688">
        <ele>187.08</ele>
        <time>2021-01-12T12:40:11Z</time>
      </trkpt>
      <trkpt lat="44.34706" lon="4.79688">
        <ele>187.15</ele>
        <time>2021-01-12T12:40:12Z</time>
      </trkpt>
      <trkpt lat="44.34715" lon="4.79693">
        <ele>187.48</ele>
        <time>2021-01-12T12:40:21Z</time>
      </trkpt>
      <trkpt lat="44.34726" lon="4.79703">
        <ele>187.17</ele>
        <time>2021-01-12T12:40:32Z</time>
      </trkpt>
      <trkpt lat="44.34728" lon="4.79704">
        <ele>187.25</ele>
        <time>2021-01-12T12:40:34Z</time>
      </trkpt>
      <trkpt lat="44.34732" lon="4.79708">
        <ele>187.5</ele>
        <time>2021-01-12T12:40:38Z</time>
      </trkpt>
      <trkpt lat="44.34743" lon="4.79719">
        <ele>188.27</ele>
        <time>2021-01-12T12:40:49Z</time>
      </trkpt>
      <trkpt lat="44.34746" lon="4.79723">
        <ele>188.2</ele>
        <time>2021-01-12T12:40:52Z</time>
      </trkpt>
      <trkpt lat="44.34751" lon="4.79735">
        <ele>188.23</ele>
        <time>2021-01-12T12:40:59Z</time>
      </trkpt>
      <trkpt lat="44.34761" lon="4.79744">
        <ele>188.38</ele>
        <time>2021-01-12T12:41:20Z</time>
      </trkpt>
      <trkpt lat="44.3478" lon="4.7974">
        <ele>185.33</ele>
        <time>2021-01-12T12:41:40Z</time>
      </trkpt>
      <trkpt lat="44.34792" lon="4.79745">
        <ele>182.28</ele>
        <time>2021-01-12T12:41:51Z</time>
      </trkpt>
      <trkpt lat="44.348" lon="4.79747">
        <ele>179.6</ele>
        <time>2021-01-12T12:41:58Z</time>
      </trkpt>
      <trkpt lat="44.34814" lon="4.7975">
        <ele>176.62</ele>
        <time>2021-01-12T12:42:17Z</time>
      </trkpt>
      <trkpt lat="44.34833" lon="4.79759">
        <ele>173.56</ele>
        <time>2021-01-12T12:42:37Z</time>
      </trkpt>
      <trkpt lat="44.34839" lon="4.79778">
        <ele>170.56</ele>
        <time>2021-01-12T12:42:55Z</time>
      </trkpt>
      <trkpt lat="44.34842" lon="4.79809">
        <ele>168.49</ele>
        <time>2021-01-12T12:43:18Z</time>
      </trkpt>
      <trkpt lat="44.34859" lon="4.79824">
        <ele>167.25</ele>
        <time>2021-01-12T12:43:37Z</time>
      </trkpt>
      <trkpt lat="44.34881" lon="4.79825">
        <ele>166.24</ele>
        <time>2021-01-12T12:44:00Z</time>
      </trkpt>
      <trkpt lat="44.34898" lon="4.79829">
        <ele>165.81</ele>
        <time>2021-01-12T12:44:21Z</time>
      </trkpt>
      <trkpt lat="44.34917" lon="4.79842">
        <ele>163.79</ele>
        <time>2021-01-12T12:44:39Z</time>
      </trkpt>
      <trkpt lat="44.34929" lon="4.79846">
        <ele>163.38</ele>
        <time>2021-01-12T12:44:50Z</time>
      </trkpt>
      <trkpt lat="44.34948" lon="4.79852">
        <ele>163.11</ele>
        <time>2021-01-12T12:45:10Z</time>
      </trkpt>
      <trkpt lat="44.34966" lon="4.79861">
        <ele>162.89</ele>
        <time>2021-01-12T12:45:28Z</time>
      </trkpt>
      <trkpt lat="44.3498" lon="4.79867">
        <ele>163.64</ele>
        <time>2021-01-12T12:45:47Z</time>
      </trkpt>
      <trkpt lat="44.35003" lon="4.79874">
        <ele>164.46</ele>
        <time>2021-01-12T12:46:08Z</time>
      </trkpt>
      <trkpt lat="44.35023" lon="4.79881">
        <ele>164.43</ele>
        <time>2021-01-12T12:46:24Z</time>
      </trkpt>
      <trkpt lat="44.35041" lon="4.7989">
        <ele>165.21</ele>
        <time>2021-01-12T12:46:40Z</time>
      </trkpt>
      <trkpt lat="44.35042" lon="4.7989">
        <ele>165.31</ele>
        <time>2021-01-12T12:46:41Z</time>
      </trkpt>
      <trkpt lat="44.3505" lon="4.79895">
        <ele>165.74</ele>
        <time>2021-01-12T12:46:49Z</time>
      </trkpt>
      <trkpt lat="44.35064" lon="4.79901">
        <ele>166.3</ele>
        <time>2021-01-12T12:47:04Z</time>
      </trkpt>
      <trkpt lat="44.35095" lon="4.79912">
        <ele>165.03</ele>
        <time>2021-01-12T12:47:28Z</time>
      </trkpt>
      <trkpt lat="44.35109" lon="4.79922">
        <ele>166.59</ele>
        <time>2021-01-12T12:47:43Z</time>
      </trkpt>
      <trkpt lat="44.35129" lon="4.79935">
        <ele>166.11</ele>
        <time>2021-01-12T12:48:01Z</time>
      </trkpt>
      <trkpt lat="44.35145" lon="4.79943">
        <ele>166.13</ele>
        <time>2021-01-12T12:48:20Z</time>
      </trkpt>
      <trkpt lat="44.35164" lon="4.79948">
        <ele>166.46</ele>
        <time>2021-01-12T12:48:41Z</time>
      </trkpt>
      <trkpt lat="44.35181" lon="4.79944">
        <ele>166.23</ele>
        <time>2021-01-12T12:49:01Z</time>
      </trkpt>
      <trkpt lat="44.35203" lon="4.79944">
        <ele>165.47</ele>
        <time>2021-01-12T12:49:24Z</time>
      </trkpt>
      <trkpt lat="44.35224" lon="4.79953">
        <ele>165.62</ele>
        <time>2021-01-12T12:49:45Z</time>
      </trkpt>
      <trkpt lat="44.35229" lon="4.79951">
        <ele>165.77</ele>
        <time>2021-01-12T12:49:52Z</time>
      </trkpt>
      <trkpt lat="44.35236" lon="4.79948">
        <ele>165.43</ele>
        <time>2021-01-12T12:49:59Z</time>
      </trkpt>
      <trkpt lat="44.3524" lon="4.79945">
        <ele>165.57</ele>
        <time>2021-01-12T12:50:05Z</time>
      </trkpt>
      <trkpt lat="44.35244" lon="4.79942">
        <ele>166.02</ele>
        <time>2021-01-12T12:50:20Z</time>
      </trkpt>
      <trkpt lat="44.35252" lon="4.79922">
        <ele>166.3</ele>
        <time>2021-01-12T12:50:43Z</time>
      </trkpt>
      <trkpt lat="44.35251" lon="4.79919">
        <ele>166.41</ele>
        <time>2021-01-12T12:50:45Z</time>
      </trkpt>
      <trkpt lat="44.35267" lon="4.79918">
        <ele>166.75</ele>
        <time>2021-01-12T12:51:00Z</time>
      </trkpt>
      <trkpt lat="44.35287" lon="4.79916">
        <ele>168.56</ele>
        <time>2021-01-12T12:51:19Z</time>
      </trkpt>
      <trkpt lat="44.35308" lon="4.79923">
        <ele>170.01</ele>
        <time>2021-01-12T12:51:38Z</time>
      </trkpt>
      <trkpt lat="44.35324" lon="4.79922">
        <ele>171.5</ele>
        <time>2021-01-12T12:51:52Z</time>
      </trkpt>
      <trkpt lat="44.35334" lon="4.79931">
        <ele>172.58</ele>
        <time>2021-01-12T12:52:07Z</time>
      </trkpt>
      <trkpt lat="44.35338" lon="4.79938">
        <ele>172.66</ele>
        <time>2021-01-12T12:52:14Z</time>
      </trkpt>
      <trkpt lat="44.35344" lon="4.79952">
        <ele>173.11</ele>
        <time>2021-01-12T12:52:30Z</time>
      </trkpt>
      <trkpt lat="44.35351" lon="4.79973">
        <ele>172.16</ele>
        <time>2021-01-12T12:52:51Z</time>
      </trkpt>
      <trkpt lat="44.35353" lon="4.79977">
        <ele>172.38</ele>
        <time>2021-01-12T12:52:55Z</time>
      </trkpt>
      <trkpt lat="44.35365" lon="4.8">
        <ele>172.42</ele>
        <time>2021-01-12T12:53:13Z</time>
      </trkpt>
      <trkpt lat="44.35383" lon="4.80019">
        <ele>172.81</ele>
        <time>2021-01-12T12:53:34Z</time>
      </trkpt>
      <trkpt lat="44.35394" lon="4.80038">
        <ele>171.79</ele>
        <time>2021-01-12T12:53:52Z</time>
      </trkpt>
      <trkpt lat="44.35406" lon="4.8007">
        <ele>171.63</ele>
        <time>2021-01-12T12:54:13Z</time>
      </trkpt>
      <trkpt lat="44.35418" lon="4.80093">
        <ele>171.56</ele>
        <time>2021-01-12T12:54:33Z</time>
      </trkpt>
      <trkpt lat="44.35424" lon="4.80133">
        <ele>171.87</ele>
        <time>2021-01-12T12:54:51Z</time>
      </trkpt>
      <trkpt lat="44.35427" lon="4.80141">
        <ele>173.34</ele>
        <time>2021-01-12T12:54:57Z</time>
      </trkpt>
      <trkpt lat="44.35429" lon="4.80146">
        <ele>173.73</ele>
        <time>2021-01-12T12:55:00Z</time>
      </trkpt>
      <trkpt lat="44.3544" lon="4.80162">
        <ele>174.47</ele>
        <time>2021-01-12T12:55:17Z</time>
      </trkpt>
      <trkpt lat="44.35441" lon="4.80164">
        <ele>174.56</ele>
        <time>2021-01-12T12:55:19Z</time>
      </trkpt>
      <trkpt lat="44.35454" lon="4.8018">
        <ele>176.07</ele>
        <time>2021-01-12T12:55:39Z</time>
      </trkpt>
      <trkpt lat="44.35464" lon="4.80208">
        <ele>177.34</ele>
        <time>2021-01-12T12:56:00Z</time>
      </trkpt>
      <trkpt lat="44.35481" lon="4.80225">
        <ele>177.34</ele>
        <time>2021-01-12T12:56:22Z</time>
      </trkpt>
      <trkpt lat="44.35499" lon="4.80245">
        <ele>178.47</ele>
        <time>2021-01-12T12:56:45Z</time>
      </trkpt>
      <trkpt lat="44.35516" lon="4.80267">
        <ele>178.27</ele>
        <time>2021-01-12T12:57:09Z</time>
      </trkpt>
      <trkpt lat="44.35531" lon="4.80299">
        <ele>178.04</ele>
        <time>2021-01-12T12:57:30Z</time>
      </trkpt>
      <trkpt lat="44.35533" lon="4.80315">
        <ele>178.2</ele>
        <time>2021-01-12T12:57:39Z</time>
      </trkpt>
      <trkpt lat="44.35538" lon="4.80348">
        <ele>178.37</ele>
        <time>2021-01-12T12:58:00Z</time>
      </trkpt>
      <trkpt lat="44.3554" lon="4.80372">
        <ele>178.94</ele>
        <time>2021-01-12T12:58:15Z</time>
      </trkpt>
      <trkpt lat="44.35545" lon="4.80383">
        <ele>179.33</ele>
        <time>2021-01-12T12:58:25Z</time>
      </trkpt>
      <trkpt lat="44.35559" lon="4.80407">
        <ele>180.15</ele>
        <time>2021-01-12T12:58:44Z</time>
      </trkpt>
      <trkpt lat="44.35572" lon="4.80434">
        <ele>182.27</ele>
        <time>2021-01-12T12:59:05Z</time>
      </trkpt>
      <trkpt lat="44.35575" lon="4.80442">
        <ele>182.25</ele>
        <time>2021-01-12T12:59:10Z</time>
      </trkpt>
      <trkpt lat="44.35598" lon="4.80472">
        <ele>183.35</ele>
        <time>2021-01-12T12:59:38Z</time>
      </trkpt>
      <trkpt lat="44.3561" lon="4.805">
        <ele>184.7</ele>
        <time>2021-01-12T13:00:02Z</time>
      </trkpt>
      <trkpt lat="44.3561" lon="4.80504">
        <ele>184.95</ele>
        <time>2021-01-12T13:00:05Z</time>
      </trkpt>
      <trkpt lat="44.35625" lon="4.80531">
        <ele>186.8</ele>
        <time>2021-01-12T13:00:27Z</time>
      </trkpt>
      <trkpt lat="44.35636" lon="4.80572">
        <ele>188.27</ele>
        <time>2021-01-12T13:00:51Z</time>
      </trkpt>
      <trkpt lat="44.35638" lon="4.80578">
        <ele>188.56</ele>
        <time>2021-01-12T13:00:54Z</time>
      </trkpt>
      <trkpt lat="44.35645" lon="4.80601">
        <ele>190.05</ele>
        <time>2021-01-12T13:01:14Z</time>
      </trkpt>
      <trkpt lat="44.35652" lon="4.80621">
        <ele>191.66</ele>
        <time>2021-01-12T13:01:31Z</time>
      </trkpt>
      <trkpt lat="44.3565" lon="4.80631">
        <ele>191.69</ele>
        <time>2021-01-12T13:01:51Z</time>
      </trkpt>
      <trkpt lat="44.35651" lon="4.80631">
        <ele>192.97</ele>
        <time>2021-01-12T13:02:17Z</time>
      </trkpt>
      <trkpt lat="44.35652" lon="4.8063">
        <ele>192.22</ele>
        <time>2021-01-12T13:02:40Z</time>
      </trkpt>
      <trkpt lat="44.35654" lon="4.8063">
        <ele>192.65</ele>
        <time>2021-01-12T13:03:10Z</time>
      </trkpt>
      <trkpt lat="44.35654" lon="4.8063">
        <ele>192.88</ele>
        <time>2021-01-12T13:03:39Z</time>
      </trkpt>
      <trkpt lat="44.35653" lon="4.80629">
        <ele>193.04</ele>
        <time>2021-01-12T13:04:10Z</time>
      </trkpt>
      <trkpt lat="44.35654" lon="4.80631">
        <ele>192.12</ele>
        <time>2021-01-12T13:04:39Z</time>
      </trkpt>
      <trkpt lat="44.35653" lon="4.80628">
        <ele>193.21</ele>
        <time>2021-01-12T13:05:07Z</time>
      </trkpt>
      <trkpt lat="44.35653" lon="4.80628">
        <ele>193.42</ele>
        <time>2021-01-12T13:05:32Z</time>
      </trkpt>
      <trkpt lat="44.35653" lon="4.8063">
        <ele>192.8</ele>
        <time>2021-01-12T13:05:57Z</time>
      </trkpt>
      <trkpt lat="44.35652" lon="4.8063">
        <ele>192.99</ele>
        <time>2021-01-12T13:06:25Z</time>
      </trkpt>
      <trkpt lat="44.35657" lon="4.80642">
        <ele>194.32</ele>
        <time>2021-01-12T13:06:49Z</time>
      </trkpt>
      <trkpt lat="44.35656" lon="4.8066">
        <ele>195.65</ele>
        <time>2021-01-12T13:07:03Z</time>
      </trkpt>
      <trkpt lat="44.35659" lon="4.80683">
        <ele>196.56</ele>
        <time>2021-01-12T13:07:21Z</time>
      </trkpt>
      <trkpt lat="44.35664" lon="4.80696">
        <ele>197.79</ele>
        <time>2021-01-12T13:07:33Z</time>
      </trkpt>
      <trkpt lat="44.35667" lon="4.807">
        <ele>198.71</ele>
        <time>2021-01-12T13:07:37Z</time>
      </trkpt>
      <trkpt lat="44.3568" lon="4.80718">
        <ele>201.27</ele>
        <time>2021-01-12T13:07:55Z</time>
      </trkpt>
      <trkpt lat="44.35689" lon="4.80726">
        <ele>202.51</ele>
        <time>2021-01-12T13:08:04Z</time>
      </trkpt>
      <trkpt lat="44.35692" lon="4.80727">
        <ele>202.8</ele>
        <time>2021-01-12T13:08:07Z</time>
      </trkpt>
      <trkpt lat="44.35704" lon="4.80733">
        <ele>203.77</ele>
        <time>2021-01-12T13:08:21Z</time>
      </trkpt>
      <trkpt lat="44.35718" lon="4.80741">
        <ele>205.36</ele>
        <time>2021-01-12T13:08:35Z</time>
      </trkpt>
      <trkpt lat="44.35732" lon="4.80757">
        <ele>208.45</ele>
        <time>2021-01-12T13:08:54Z</time>
      </trkpt>
      <trkpt lat="44.35736" lon="4.80761">
        <ele>209.23</ele>
        <time>2021-01-12T13:09:00Z</time>
      </trkpt>
      <trkpt lat="44.35745" lon="4.80767">
        <ele>211.13</ele>
        <time>2021-01-12T13:09:10Z</time>
      </trkpt>
      <trkpt lat="44.35755" lon="4.8077">
        <ele>212.57</ele>
        <time>2021-01-12T13:09:20Z</time>
      </trkpt>
      <trkpt lat="44.35758" lon="4.80772">
        <ele>213.37</ele>
        <time>2021-01-12T13:09:24Z</time>
      </trkpt>
      <trkpt lat="44.35775" lon="4.80781">
        <ele>216.76</ele>
        <time>2021-01-12T13:09:42Z</time>
      </trkpt>
      <trkpt lat="44.35786" lon="4.80794">
        <ele>217.87</ele>
        <time>2021-01-12T13:09:58Z</time>
      </trkpt>
      <trkpt lat="44.35787" lon="4.80796">
        <ele>218.09</ele>
        <time>2021-01-12T13:10:00Z</time>
      </trkpt>
      <trkpt lat="44.35796" lon="4.8081">
        <ele>219.28</ele>
        <time>2021-01-12T13:10:20Z</time>
      </trkpt>
      <trkpt lat="44.35801" lon="4.80821">
        <ele>220.13</ele>
        <time>2021-01-12T13:10:36Z</time>
      </trkpt>
      <trkpt lat="44.35806" lon="4.80841">
        <ele>222.41</ele>
        <time>2021-01-12T13:10:49Z</time>
      </trkpt>
      <trkpt lat="44.3581" lon="4.80853">
        <ele>223.39</ele>
        <time>2021-01-12T13:10:56Z</time>
      </trkpt>
      <trkpt lat="44.35818" lon="4.80872">
        <ele>225.72</ele>
        <time>2021-01-12T13:11:14Z</time>
      </trkpt>
      <trkpt lat="44.35825" lon="4.8089">
        <ele>226.68</ele>
        <time>2021-01-12T13:11:30Z</time>
      </trkpt>
      <trkpt lat="44.35832" lon="4.80901">
        <ele>228.16</ele>
        <time>2021-01-12T13:11:43Z</time>
      </trkpt>
      <trkpt lat="44.35839" lon="4.80915">
        <ele>229.42</ele>
        <time>2021-01-12T13:11:57Z</time>
      </trkpt>
      <trkpt lat="44.3585" lon="4.80936">
        <ele>231.12</ele>
        <time>2021-01-12T13:12:14Z</time>
      </trkpt>
      <trkpt lat="44.35861" lon="4.80949">
        <ele>233.04</ele>
        <time>2021-01-12T13:12:29Z</time>
      </trkpt>
      <trkpt lat="44.35867" lon="4.80958">
        <ele>234.03</ele>
        <time>2021-01-12T13:12:39Z</time>
      </trkpt>
      <trkpt lat="44.35875" lon="4.8097">
        <ele>235.8</ele>
        <time>2021-01-12T13:12:53Z</time>
      </trkpt>
      <trkpt lat="44.35881" lon="4.80979">
        <ele>236.74</ele>
        <time>2021-01-12T13:13:02Z</time>
      </trkpt>
      <trkpt lat="44.35885" lon="4.80987">
        <ele>237.83</ele>
        <time>2021-01-12T13:13:12Z</time>
      </trkpt>
      <trkpt lat="44.35894" lon="4.81014">
        <ele>240.3</ele>
        <time>2021-01-12T13:13:34Z</time>
      </trkpt>
      <trkpt lat="44.359" lon="4.81024">
        <ele>241.01</ele>
        <time>2021-01-12T13:13:46Z</time>
      </trkpt>
      <trkpt lat="44.35901" lon="4.81024">
        <ele>241.01</ele>
        <time>2021-01-12T13:13:47Z</time>
      </trkpt>
      <trkpt lat="44.3591" lon="4.81031">
        <ele>240.84</ele>
        <time>2021-01-12T13:13:57Z</time>
      </trkpt>
      <trkpt lat="44.3592" lon="4.81035">
        <ele>241.62</ele>
        <time>2021-01-12T13:14:07Z</time>
      </trkpt>
      <trkpt lat="44.35929" lon="4.8104">
        <ele>242.57</ele>
        <time>2021-01-12T13:14:19Z</time>
      </trkpt>
      <trkpt lat="44.35941" lon="4.81049">
        <ele>243.78</ele>
        <time>2021-01-12T13:14:32Z</time>
      </trkpt>
      <trkpt lat="44.35955" lon="4.81067">
        <ele>244.3</ele>
        <time>2021-01-12T13:14:50Z</time>
      </trkpt>
      <trkpt lat="44.35962" lon="4.81085">
        <ele>245.83</ele>
        <time>2021-01-12T13:15:04Z</time>
      </trkpt>
      <trkpt lat="44.35968" lon="4.81091">
        <ele>246.87</ele>
        <time>2021-01-12T13:15:13Z</time>
      </trkpt>
      <trkpt lat="44.35971" lon="4.81093">
        <ele>247.22</ele>
        <time>2021-01-12T13:15:16Z</time>
      </trkpt>
      <trkpt lat="44.35981" lon="4.81101">
        <ele>249.26</ele>
        <time>2021-01-12T13:15:29Z</time>
      </trkpt>
      <trkpt lat="44.35989" lon="4.81104">
        <ele>250.93</ele>
        <time>2021-01-12T13:15:43Z</time>
      </trkpt>
      <trkpt lat="44.35998" lon="4.81095">
        <ele>253</ele>
        <time>2021-01-12T13:16:01Z</time>
      </trkpt>
      <trkpt lat="44.36001" lon="4.81094">
        <ele>253.7</ele>
        <time>2021-01-12T13:16:06Z</time>
      </trkpt>
      <trkpt lat="44.36013" lon="4.81092">
        <ele>254.82</ele>
        <time>2021-01-12T13:16:34Z</time>
      </trkpt>
      <trkpt lat="44.36017" lon="4.8109">
        <ele>255.12</ele>
        <time>2021-01-12T13:16:38Z</time>
      </trkpt>
      <trkpt lat="44.36027" lon="4.81082">
        <ele>256.73</ele>
        <time>2021-01-12T13:17:01Z</time>
      </trkpt>
      <trkpt lat="44.36026" lon="4.81082">
        <ele>256.62</ele>
        <time>2021-01-12T13:17:26Z</time>
      </trkpt>
      <trkpt lat="44.3602" lon="4.81093">
        <ele>256.97</ele>
        <time>2021-01-12T13:17:45Z</time>
      </trkpt>
      <trkpt lat="44.36025" lon="4.81109">
        <ele>255.79</ele>
        <time>2021-01-12T13:18:02Z</time>
      </trkpt>
      <trkpt lat="44.36032" lon="4.81104">
        <ele>257.24</ele>
        <time>2021-01-12T13:18:14Z</time>
      </trkpt>
      <trkpt lat="44.36044" lon="4.81088">
        <ele>260.28</ele>
        <time>2021-01-12T13:18:36Z</time>
      </trkpt>
      <trkpt lat="44.36049" lon="4.81086">
        <ele>261.7</ele>
        <time>2021-01-12T13:18:45Z</time>
      </trkpt>
      <trkpt lat="44.36058" lon="4.81086">
        <ele>262.86</ele>
        <time>2021-01-12T13:19:07Z</time>
      </trkpt>
      <trkpt lat="44.3606" lon="4.81087">
        <ele>262.78</ele>
        <time>2021-01-12T13:19:28Z</time>
      </trkpt>
      <trkpt lat="44.36062" lon="4.8109">
        <ele>263.61</ele>
        <time>2021-01-12T13:19:50Z</time>
      </trkpt>
      <trkpt lat="44.36063" lon="4.81089">
        <ele>263.64</ele>
        <time>2021-01-12T13:20:19Z</time>
      </trkpt>
      <trkpt lat="44.36061" lon="4.81088">
        <ele>263.79</ele>
        <time>2021-01-12T13:20:49Z</time>
      </trkpt>
      <trkpt lat="44.3606" lon="4.81087">
        <ele>263.98</ele>
        <time>2021-01-12T13:21:17Z</time>
      </trkpt>
      <trkpt lat="44.3606" lon="4.81087">
        <ele>264.37</ele>
        <time>2021-01-12T13:21:52Z</time>
      </trkpt>
      <trkpt lat="44.36061" lon="4.81087">
        <ele>264.02</ele>
        <time>2021-01-12T13:22:22Z</time>
      </trkpt>
      <trkpt lat="44.36062" lon="4.81088">
        <ele>264.58</ele>
        <time>2021-01-12T13:22:53Z</time>
      </trkpt>
      <trkpt lat="44.36062" lon="4.81089">
        <ele>264.26</ele>
        <time>2021-01-12T13:23:26Z</time>
      </trkpt>
      <trkpt lat="44.36068" lon="4.81095">
        <ele>264.37</ele>
        <time>2021-01-12T13:23:52Z</time>
      </trkpt>
      <trkpt lat="44.36073" lon="4.81109">
        <ele>264.79</ele>
        <time>2021-01-12T13:24:06Z</time>
      </trkpt>
      <trkpt lat="44.36075" lon="4.81116">
        <ele>265.01</ele>
        <time>2021-01-12T13:24:10Z</time>
      </trkpt>
      <trkpt lat="44.36078" lon="4.8113">
        <ele>265.31</ele>
        <time>2021-01-12T13:24:20Z</time>
      </trkpt>
      <trkpt lat="44.36078" lon="4.81137">
        <ele>265.52</ele>
        <time>2021-01-12T13:24:24Z</time>
      </trkpt>
      <trkpt lat="44.36084" lon="4.81159">
        <ele>266.54</ele>
        <time>2021-01-12T13:24:38Z</time>
      </trkpt>
      <trkpt lat="44.361" lon="4.81189">
        <ele>267.73</ele>
        <time>2021-01-12T13:25:01Z</time>
      </trkpt>
      <trkpt lat="44.36121" lon="4.81207">
        <ele>268.53</ele>
        <time>2021-01-12T13:25:26Z</time>
      </trkpt>
      <trkpt lat="44.36142" lon="4.81233">
        <ele>267.44</ele>
        <time>2021-01-12T13:25:51Z</time>
      </trkpt>
      <trkpt lat="44.36145" lon="4.81238">
        <ele>267.38</ele>
        <time>2021-01-12T13:25:55Z</time>
      </trkpt>
      <trkpt lat="44.36152" lon="4.81249">
        <ele>268.36</ele>
        <time>2021-01-12T13:26:07Z</time>
      </trkpt>
      <trkpt lat="44.36162" lon="4.81269">
        <ele>268.81</ele>
        <time>2021-01-12T13:26:25Z</time>
      </trkpt>
      <trkpt lat="44.36171" lon="4.81302">
        <ele>269.25</ele>
        <time>2021-01-12T13:26:45Z</time>
      </trkpt>
      <trkpt lat="44.36177" lon="4.8134">
        <ele>268.89</ele>
        <time>2021-01-12T13:27:09Z</time>
      </trkpt>
      <trkpt lat="44.36191" lon="4.81367">
        <ele>269.06</ele>
        <time>2021-01-12T13:27:29Z</time>
      </trkpt>
      <trkpt lat="44.36199" lon="4.8137">
        <ele>270.1</ele>
        <time>2021-01-12T13:27:46Z</time>
      </trkpt>
      <trkpt lat="44.36204" lon="4.81367">
        <ele>270.12</ele>
        <time>2021-01-12T13:27:53Z</time>
      </trkpt>
      <trkpt lat="44.36224" lon="4.81362">
        <ele>270.74</ele>
        <time>2021-01-12T13:28:09Z</time>
      </trkpt>
      <trkpt lat="44.36244" lon="4.81368">
        <ele>271.53</ele>
        <time>2021-01-12T13:28:23Z</time>
      </trkpt>
      <trkpt lat="44.36258" lon="4.81376">
        <ele>272.2</ele>
        <time>2021-01-12T13:28:35Z</time>
      </trkpt>
      <trkpt lat="44.36273" lon="4.81385">
        <ele>272.08</ele>
        <time>2021-01-12T13:28:47Z</time>
      </trkpt>
      <trkpt lat="44.36288" lon="4.81395">
        <ele>272.11</ele>
        <time>2021-01-12T13:29:00Z</time>
      </trkpt>
      <trkpt lat="44.36298" lon="4.814">
        <ele>272.07</ele>
        <time>2021-01-12T13:29:08Z</time>
      </trkpt>
      <trkpt lat="44.36321" lon="4.81412">
        <ele>272.92</ele>
        <time>2021-01-12T13:29:29Z</time>
      </trkpt>
      <trkpt lat="44.36344" lon="4.8142">
        <ele>273.51</ele>
        <time>2021-01-12T13:29:46Z</time>
      </trkpt>
      <trkpt lat="44.36361" lon="4.81422">
        <ele>274.54</ele>
        <time>2021-01-12T13:29:59Z</time>
      </trkpt>
      <trkpt lat="44.3638" lon="4.81428">
        <ele>275.33</ele>
        <time>2021-01-12T13:30:13Z</time>
      </trkpt>
      <trkpt lat="44.36392" lon="4.81435">
        <ele>276.42</ele>
        <time>2021-01-12T13:30:23Z</time>
      </trkpt>
      <trkpt lat="44.36415" lon="4.81449">
        <ele>277.7</ele>
        <time>2021-01-12T13:30:42Z</time>
      </trkpt>
      <trkpt lat="44.36432" lon="4.81458">
        <ele>279.43</ele>
        <time>2021-01-12T13:30:57Z</time>
      </trkpt>
      <trkpt lat="44.36448" lon="4.8147">
        <ele>279.59</ele>
        <time>2021-01-12T13:31:14Z</time>
      </trkpt>
      <trkpt lat="44.36467" lon="4.81482">
        <ele>280.58</ele>
        <time>2021-01-12T13:31:34Z</time>
      </trkpt>
      <trkpt lat="44.36488" lon="4.81489">
        <ele>281.48</ele>
        <time>2021-01-12T13:31:55Z</time>
      </trkpt>
      <trkpt lat="44.36513" lon="4.81497">
        <ele>283.77</ele>
        <time>2021-01-12T13:32:17Z</time>
      </trkpt>
      <trkpt lat="44.36536" lon="4.81518">
        <ele>286.63</ele>
        <time>2021-01-12T13:32:41Z</time>
      </trkpt>
      <trkpt lat="44.3654" lon="4.8152">
        <ele>286.61</ele>
        <time>2021-01-12T13:32:44Z</time>
      </trkpt>
      <trkpt lat="44.36553" lon="4.81543">
        <ele>288.24</ele>
        <time>2021-01-12T13:32:59Z</time>
      </trkpt>
      <trkpt lat="44.36557" lon="4.81547">
        <ele>288.45</ele>
        <time>2021-01-12T13:33:02Z</time>
      </trkpt>
      <trkpt lat="44.36561" lon="4.81551">
        <ele>288.39</ele>
        <time>2021-01-12T13:33:08Z</time>
      </trkpt>
      <trkpt lat="44.36569" lon="4.81566">
        <ele>288.54</ele>
        <time>2021-01-12T13:33:26Z</time>
      </trkpt>
      <trkpt lat="44.3657" lon="4.81569">
        <ele>288.74</ele>
        <time>2021-01-12T13:33:29Z</time>
      </trkpt>
      <trkpt lat="44.36577" lon="4.81589">
        <ele>289.87</ele>
        <time>2021-01-12T13:33:42Z</time>
      </trkpt>
      <trkpt lat="44.36582" lon="4.81599">
        <ele>290.22</ele>
        <time>2021-01-12T13:33:49Z</time>
      </trkpt>
      <trkpt lat="44.36592" lon="4.81614">
        <ele>290.76</ele>
        <time>2021-01-12T13:34:03Z</time>
      </trkpt>
      <trkpt lat="44.36604" lon="4.8163">
        <ele>291.21</ele>
        <time>2021-01-12T13:34:20Z</time>
      </trkpt>
      <trkpt lat="44.36619" lon="4.81642">
        <ele>291.8</ele>
        <time>2021-01-12T13:34:37Z</time>
      </trkpt>
      <trkpt lat="44.36639" lon="4.81654">
        <ele>291.9</ele>
        <time>2021-01-12T13:34:57Z</time>
      </trkpt>
      <trkpt lat="44.36658" lon="4.81671">
        <ele>292.74</ele>
        <time>2021-01-12T13:35:17Z</time>
      </trkpt>
      <trkpt lat="44.36679" lon="4.81691">
        <ele>293.06</ele>
        <time>2021-01-12T13:35:38Z</time>
      </trkpt>
      <trkpt lat="44.36691" lon="4.81713">
        <ele>293.31</ele>
        <time>2021-01-12T13:35:58Z</time>
      </trkpt>
      <trkpt lat="44.36701" lon="4.81748">
        <ele>292.82</ele>
        <time>2021-01-12T13:36:21Z</time>
      </trkpt>
      <trkpt lat="44.36702" lon="4.81786">
        <ele>292.32</ele>
        <time>2021-01-12T13:36:44Z</time>
      </trkpt>
      <trkpt lat="44.36709" lon="4.81799">
        <ele>291.89</ele>
        <time>2021-01-12T13:36:55Z</time>
      </trkpt>
      <trkpt lat="44.36727" lon="4.81804">
        <ele>292</ele>
        <time>2021-01-12T13:37:09Z</time>
      </trkpt>
      <trkpt lat="44.36733" lon="4.81802">
        <ele>292.18</ele>
        <time>2021-01-12T13:37:23Z</time>
      </trkpt>
      <trkpt lat="44.36736" lon="4.81802">
        <ele>292.31</ele>
        <time>2021-01-12T13:37:47Z</time>
      </trkpt>
      <trkpt lat="44.36746" lon="4.81798">
        <ele>292.31</ele>
        <time>2021-01-12T13:38:11Z</time>
      </trkpt>
      <trkpt lat="44.3676" lon="4.81794">
        <ele>293.28</ele>
        <time>2021-01-12T13:38:34Z</time>
      </trkpt>
      <trkpt lat="44.36762" lon="4.81793">
        <ele>293.09</ele>
        <time>2021-01-12T13:39:09Z</time>
      </trkpt>
      <trkpt lat="44.36764" lon="4.81793">
        <ele>293.54</ele>
        <time>2021-01-12T13:39:40Z</time>
      </trkpt>
      <trkpt lat="44.36763" lon="4.81792">
        <ele>292.85</ele>
        <time>2021-01-12T13:40:09Z</time>
      </trkpt>
      <trkpt lat="44.36764" lon="4.81793">
        <ele>293.24</ele>
        <time>2021-01-12T13:40:41Z</time>
      </trkpt>
      <trkpt lat="44.36786" lon="4.81779">
        <ele>293.32</ele>
        <time>2021-01-12T13:41:05Z</time>
      </trkpt>
      <trkpt lat="44.36815" lon="4.81775">
        <ele>292.98</ele>
        <time>2021-01-12T13:41:31Z</time>
      </trkpt>
      <trkpt lat="44.36838" lon="4.81782">
        <ele>291.47</ele>
        <time>2021-01-12T13:41:52Z</time>
      </trkpt>
      <trkpt lat="44.36861" lon="4.81791">
        <ele>290.15</ele>
        <time>2021-01-12T13:42:08Z</time>
      </trkpt>
      <trkpt lat="44.36871" lon="4.81796">
        <ele>289.41</ele>
        <time>2021-01-12T13:42:17Z</time>
      </trkpt>
      <trkpt lat="44.36882" lon="4.81806">
        <ele>289.85</ele>
        <time>2021-01-12T13:42:39Z</time>
      </trkpt>
      <trkpt lat="44.36885" lon="4.81809">
        <ele>290.58</ele>
        <time>2021-01-12T13:42:59Z</time>
      </trkpt>
      <trkpt lat="44.36886" lon="4.81809">
        <ele>290.58</ele>
        <time>2021-01-12T13:43:00Z</time>
      </trkpt>
      <trkpt lat="44.36892" lon="4.81811">
        <ele>290.39</ele>
        <time>2021-01-12T13:43:04Z</time>
      </trkpt>
      <trkpt lat="44.36908" lon="4.81823">
        <ele>290.49</ele>
        <time>2021-01-12T13:43:19Z</time>
      </trkpt>
      <trkpt lat="44.36921" lon="4.81837">
        <ele>290.24</ele>
        <time>2021-01-12T13:43:34Z</time>
      </trkpt>
      <trkpt lat="44.36947" lon="4.81851">
        <ele>291.11</ele>
        <time>2021-01-12T13:43:56Z</time>
      </trkpt>
      <trkpt lat="44.36964" lon="4.81864">
        <ele>291.48</ele>
        <time>2021-01-12T13:44:12Z</time>
      </trkpt>
      <trkpt lat="44.36987" lon="4.81879">
        <ele>291.43</ele>
        <time>2021-01-12T13:44:35Z</time>
      </trkpt>
      <trkpt lat="44.37008" lon="4.81888">
        <ele>291.67</ele>
        <time>2021-01-12T13:44:53Z</time>
      </trkpt>
      <trkpt lat="44.37034" lon="4.81906">
        <ele>291.92</ele>
        <time>2021-01-12T13:45:12Z</time>
      </trkpt>
      <trkpt lat="44.3705" lon="4.81916">
        <ele>292.19</ele>
        <time>2021-01-12T13:45:27Z</time>
      </trkpt>
      <trkpt lat="44.3707" lon="4.81929">
        <ele>291.91</ele>
        <time>2021-01-12T13:45:47Z</time>
      </trkpt>
      <trkpt lat="44.37094" lon="4.81949">
        <ele>291.99</ele>
        <time>2021-01-12T13:46:05Z</time>
      </trkpt>
      <trkpt lat="44.37116" lon="4.81965">
        <ele>291.56</ele>
        <time>2021-01-12T13:46:24Z</time>
      </trkpt>
      <trkpt lat="44.37135" lon="4.81981">
        <ele>291.08</ele>
        <time>2021-01-12T13:46:45Z</time>
      </trkpt>
      <trkpt lat="44.37152" lon="4.81992">
        <ele>291.52</ele>
        <time>2021-01-12T13:47:04Z</time>
      </trkpt>
      <trkpt lat="44.37176" lon="4.82004">
        <ele>291.07</ele>
        <time>2021-01-12T13:47:25Z</time>
      </trkpt>
      <trkpt lat="44.37206" lon="4.82016">
        <ele>290.48</ele>
        <time>2021-01-12T13:47:48Z</time>
      </trkpt>
      <trkpt lat="44.37227" lon="4.82024">
        <ele>289.82</ele>
        <time>2021-01-12T13:48:10Z</time>
      </trkpt>
      <trkpt lat="44.37248" lon="4.82037">
        <ele>289.25</ele>
        <time>2021-01-12T13:48:30Z</time>
      </trkpt>
      <trkpt lat="44.37279" lon="4.82054">
        <ele>287.97</ele>
        <time>2021-01-12T13:48:54Z</time>
      </trkpt>
      <trkpt lat="44.37279" lon="4.82054">
        <ele>287.91</ele>
        <time>2021-01-12T13:48:55Z</time>
      </trkpt>
      <trkpt lat="44.3728" lon="4.82061">
        <ele>287.72</ele>
        <time>2021-01-12T13:49:06Z</time>
      </trkpt>
      <trkpt lat="44.37291" lon="4.82057">
        <ele>286.79</ele>
        <time>2021-01-12T13:49:31Z</time>
      </trkpt>
      <trkpt lat="44.37292" lon="4.82062">
        <ele>287.21</ele>
        <time>2021-01-12T13:52:47Z</time>
      </trkpt>
      <trkpt lat="44.37291" lon="4.82088">
        <ele>287.88</ele>
        <time>2021-01-12T13:53:09Z</time>
      </trkpt>
      <trkpt lat="44.373" lon="4.821">
        <ele>287.53</ele>
        <time>2021-01-12T13:53:22Z</time>
      </trkpt>
      <trkpt lat="44.37315" lon="4.82106">
        <ele>287.88</ele>
        <time>2021-01-12T13:53:37Z</time>
      </trkpt>
      <trkpt lat="44.37326" lon="4.82125">
        <ele>287.89</ele>
        <time>2021-01-12T13:53:55Z</time>
      </trkpt>
      <trkpt lat="44.37347" lon="4.82137">
        <ele>287.82</ele>
        <time>2021-01-12T13:54:17Z</time>
      </trkpt>
      <trkpt lat="44.37365" lon="4.82158">
        <ele>287.83</ele>
        <time>2021-01-12T13:54:38Z</time>
      </trkpt>
      <trkpt lat="44.37387" lon="4.82184">
        <ele>288.99</ele>
        <time>2021-01-12T13:55:01Z</time>
      </trkpt>
      <trkpt lat="44.37412" lon="4.82213">
        <ele>289.2</ele>
        <time>2021-01-12T13:55:25Z</time>
      </trkpt>
      <trkpt lat="44.37433" lon="4.82241">
        <ele>290</ele>
        <time>2021-01-12T13:55:47Z</time>
      </trkpt>
      <trkpt lat="44.37454" lon="4.8227">
        <ele>289.71</ele>
        <time>2021-01-12T13:56:12Z</time>
      </trkpt>
      <trkpt lat="44.3747" lon="4.82289">
        <ele>290.69</ele>
        <time>2021-01-12T13:56:34Z</time>
      </trkpt>
      <trkpt lat="44.37493" lon="4.82294">
        <ele>290.97</ele>
        <time>2021-01-12T13:56:55Z</time>
      </trkpt>
      <trkpt lat="44.37516" lon="4.82292">
        <ele>289.2</ele>
        <time>2021-01-12T13:57:17Z</time>
      </trkpt>
      <trkpt lat="44.3753" lon="4.82298">
        <ele>288.74</ele>
        <time>2021-01-12T13:57:32Z</time>
      </trkpt>
      <trkpt lat="44.37548" lon="4.82299">
        <ele>287.95</ele>
        <time>2021-01-12T13:57:46Z</time>
      </trkpt>
      <trkpt lat="44.37565" lon="4.8229">
        <ele>287.21</ele>
        <time>2021-01-12T13:58:01Z</time>
      </trkpt>
      <trkpt lat="44.37571" lon="4.82275">
        <ele>286.72</ele>
        <time>2021-01-12T13:58:14Z</time>
      </trkpt>
      <trkpt lat="44.37557" lon="4.82252">
        <ele>285.66</ele>
        <time>2021-01-12T13:58:33Z</time>
      </trkpt>
      <trkpt lat="44.37555" lon="4.82247">
        <ele>285.5</ele>
        <time>2021-01-12T13:58:36Z</time>
      </trkpt>
      <trkpt lat="44.37552" lon="4.82239">
        <ele>285.29</ele>
        <time>2021-01-12T13:58:41Z</time>
      </trkpt>
      <trkpt lat="44.3755" lon="4.82222">
        <ele>284.61</ele>
        <time>2021-01-12T13:58:54Z</time>
      </trkpt>
      <trkpt lat="44.3754" lon="4.82181">
        <ele>283.17</ele>
        <time>2021-01-12T13:59:21Z</time>
      </trkpt>
      <trkpt lat="44.37533" lon="4.82158">
        <ele>282.72</ele>
        <time>2021-01-12T13:59:34Z</time>
      </trkpt>
      <trkpt lat="44.37532" lon="4.82149">
        <ele>282.51</ele>
        <time>2021-01-12T13:59:49Z</time>
      </trkpt>
      <trkpt lat="44.37547" lon="4.82135">
        <ele>282.03</ele>
        <time>2021-01-12T14:00:10Z</time>
      </trkpt>
      <trkpt lat="44.37568" lon="4.82123">
        <ele>281.32</ele>
        <time>2021-01-12T14:00:30Z</time>
      </trkpt>
      <trkpt lat="44.3757" lon="4.82122">
        <ele>281.29</ele>
        <time>2021-01-12T14:00:31Z</time>
      </trkpt>
      <trkpt lat="44.3758" lon="4.82116">
        <ele>281.3</ele>
        <time>2021-01-12T14:00:38Z</time>
      </trkpt>
      <trkpt lat="44.37601" lon="4.82105">
        <ele>282.24</ele>
        <time>2021-01-12T14:00:53Z</time>
      </trkpt>
      <trkpt lat="44.37616" lon="4.82084">
        <ele>282.86</ele>
        <time>2021-01-12T14:01:10Z</time>
      </trkpt>
      <trkpt lat="44.3762" lon="4.82062">
        <ele>284.2</ele>
        <time>2021-01-12T14:01:23Z</time>
      </trkpt>
      <trkpt lat="44.37627" lon="4.82037">
        <ele>284.66</ele>
        <time>2021-01-12T14:01:39Z</time>
      </trkpt>
      <trkpt lat="44.37637" lon="4.82018">
        <ele>285.57</ele>
        <time>2021-01-12T14:01:54Z</time>
      </trkpt>
      <trkpt lat="44.37638" lon="4.82013">
        <ele>285.9</ele>
        <time>2021-01-12T14:01:58Z</time>
      </trkpt>
      <trkpt lat="44.37643" lon="4.81981">
        <ele>286.92</ele>
        <time>2021-01-12T14:02:21Z</time>
      </trkpt>
      <trkpt lat="44.37645" lon="4.81952">
        <ele>285.99</ele>
        <time>2021-01-12T14:02:37Z</time>
      </trkpt>
      <trkpt lat="44.37647" lon="4.81924">
        <ele>285.86</ele>
        <time>2021-01-12T14:02:55Z</time>
      </trkpt>
      <trkpt lat="44.37647" lon="4.81915">
        <ele>285.81</ele>
        <time>2021-01-12T14:03:00Z</time>
      </trkpt>
      <trkpt lat="44.37646" lon="4.81907">
        <ele>285.7</ele>
        <time>2021-01-12T14:03:05Z</time>
      </trkpt>
      <trkpt lat="44.37645" lon="4.81887">
        <ele>285.64</ele>
        <time>2021-01-12T14:03:23Z</time>
      </trkpt>
      <trkpt lat="44.37642" lon="4.8186">
        <ele>285.29</ele>
        <time>2021-01-12T14:03:41Z</time>
      </trkpt>
      <trkpt lat="44.37633" lon="4.81834">
        <ele>284.8</ele>
        <time>2021-01-12T14:03:59Z</time>
      </trkpt>
      <trkpt lat="44.3762" lon="4.81816">
        <ele>284.45</ele>
        <time>2021-01-12T14:04:15Z</time>
      </trkpt>
      <trkpt lat="44.37618" lon="4.81813">
        <ele>284.66</ele>
        <time>2021-01-12T14:04:24Z</time>
      </trkpt>
      <trkpt lat="44.37628" lon="4.81821">
        <ele>284.66</ele>
        <time>2021-01-12T14:04:46Z</time>
      </trkpt>
      <trkpt lat="44.37633" lon="4.81811">
        <ele>285.61</ele>
        <time>2021-01-12T14:05:02Z</time>
      </trkpt>
      <trkpt lat="44.37636" lon="4.81793">
        <ele>285.98</ele>
        <time>2021-01-12T14:05:22Z</time>
      </trkpt>
      <trkpt lat="44.37643" lon="4.81772">
        <ele>286.61</ele>
        <time>2021-01-12T14:05:42Z</time>
      </trkpt>
      <trkpt lat="44.37653" lon="4.81751">
        <ele>286.35</ele>
        <time>2021-01-12T14:06:04Z</time>
      </trkpt>
      <trkpt lat="44.37662" lon="4.81734">
        <ele>286.38</ele>
        <time>2021-01-12T14:06:20Z</time>
      </trkpt>
      <trkpt lat="44.37669" lon="4.81702">
        <ele>285.85</ele>
        <time>2021-01-12T14:06:37Z</time>
      </trkpt>
      <trkpt lat="44.37674" lon="4.81672">
        <ele>284.73</ele>
        <time>2021-01-12T14:06:57Z</time>
      </trkpt>
      <trkpt lat="44.37668" lon="4.81645">
        <ele>282.26</ele>
        <time>2021-01-12T14:07:16Z</time>
      </trkpt>
      <trkpt lat="44.37667" lon="4.8163">
        <ele>281.78</ele>
        <time>2021-01-12T14:07:26Z</time>
      </trkpt>
      <trkpt lat="44.37662" lon="4.8161">
        <ele>280.7</ele>
        <time>2021-01-12T14:07:41Z</time>
      </trkpt>
      <trkpt lat="44.37652" lon="4.81588">
        <ele>277.64</ele>
        <time>2021-01-12T14:08:01Z</time>
      </trkpt>
      <trkpt lat="44.37647" lon="4.81579">
        <ele>276.36</ele>
        <time>2021-01-12T14:08:07Z</time>
      </trkpt>
      <trkpt lat="44.37632" lon="4.81562">
        <ele>274.06</ele>
        <time>2021-01-12T14:08:27Z</time>
      </trkpt>
      <trkpt lat="44.37623" lon="4.81543">
        <ele>271.83</ele>
        <time>2021-01-12T14:08:46Z</time>
      </trkpt>
      <trkpt lat="44.37615" lon="4.81524">
        <ele>271.24</ele>
        <time>2021-01-12T14:09:06Z</time>
      </trkpt>
      <trkpt lat="44.37617" lon="4.81509">
        <ele>270.59</ele>
        <time>2021-01-12T14:09:21Z</time>
      </trkpt>
      <trkpt lat="44.37624" lon="4.81504">
        <ele>270.07</ele>
        <time>2021-01-12T14:09:32Z</time>
      </trkpt>
      <trkpt lat="44.37647" lon="4.81501">
        <ele>268.44</ele>
        <time>2021-01-12T14:09:53Z</time>
      </trkpt>
      <trkpt lat="44.37655" lon="4.81501">
        <ele>268.02</ele>
        <time>2021-01-12T14:10:03Z</time>
      </trkpt>
      <trkpt lat="44.37657" lon="4.81502">
        <ele>267.94</ele>
        <time>2021-01-12T14:10:05Z</time>
      </trkpt>
      <trkpt lat="44.37679" lon="4.81512">
        <ele>267.64</ele>
        <time>2021-01-12T14:10:23Z</time>
      </trkpt>
      <trkpt lat="44.37684" lon="4.8151">
        <ele>267.54</ele>
        <time>2021-01-12T14:10:28Z</time>
      </trkpt>
      <trkpt lat="44.3769" lon="4.81505">
        <ele>266.61</ele>
        <time>2021-01-12T14:10:34Z</time>
      </trkpt>
      <trkpt lat="44.37694" lon="4.81495">
        <ele>264.8</ele>
        <time>2021-01-12T14:10:41Z</time>
      </trkpt>
      <trkpt lat="44.37693" lon="4.81475">
        <ele>262.53</ele>
        <time>2021-01-12T14:10:54Z</time>
      </trkpt>
      <trkpt lat="44.37692" lon="4.81469">
        <ele>262.17</ele>
        <time>2021-01-12T14:10:58Z</time>
      </trkpt>
      <trkpt lat="44.37691" lon="4.81465">
        <ele>262.01</ele>
        <time>2021-01-12T14:11:00Z</time>
      </trkpt>
      <trkpt lat="44.37692" lon="4.81459">
        <ele>261.92</ele>
        <time>2021-01-12T14:11:04Z</time>
      </trkpt>
      <trkpt lat="44.37692" lon="4.81453">
        <ele>261.81</ele>
        <time>2021-01-12T14:11:15Z</time>
      </trkpt>
      <trkpt lat="44.37688" lon="4.81452">
        <ele>261.56</ele>
        <time>2021-01-12T14:11:29Z</time>
      </trkpt>
      <trkpt lat="44.37677" lon="4.81432">
        <ele>260.72</ele>
        <time>2021-01-12T14:11:50Z</time>
      </trkpt>
      <trkpt lat="44.37676" lon="4.81432">
        <ele>260.55</ele>
        <time>2021-01-12T14:12:13Z</time>
      </trkpt>
      <trkpt lat="44.37669" lon="4.81417">
        <ele>260.27</ele>
        <time>2021-01-12T14:12:28Z</time>
      </trkpt>
      <trkpt lat="44.37671" lon="4.81406">
        <ele>258.51</ele>
        <time>2021-01-12T14:12:47Z</time>
      </trkpt>
      <trkpt lat="44.37665" lon="4.81408">
        <ele>259.23</ele>
        <time>2021-01-12T14:13:03Z</time>
      </trkpt>
      <trkpt lat="44.37664" lon="4.81407">
        <ele>259.24</ele>
        <time>2021-01-12T14:13:04Z</time>
      </trkpt>
      <trkpt lat="44.3765" lon="4.8139">
        <ele>258.08</ele>
        <time>2021-01-12T14:13:24Z</time>
      </trkpt>
      <trkpt lat="44.37653" lon="4.81389">
        <ele>258.14</ele>
        <time>2021-01-12T14:13:46Z</time>
      </trkpt>
      <trkpt lat="44.37654" lon="4.8139">
        <ele>258.13</ele>
        <time>2021-01-12T14:14:16Z</time>
      </trkpt>
      <trkpt lat="44.37655" lon="4.81384">
        <ele>256.81</ele>
        <time>2021-01-12T14:14:41Z</time>
      </trkpt>
      <trkpt lat="44.37651" lon="4.81387">
        <ele>257.06</ele>
        <time>2021-01-12T14:14:49Z</time>
      </trkpt>
      <trkpt lat="44.37647" lon="4.81384">
        <ele>257.42</ele>
        <time>2021-01-12T14:14:53Z</time>
      </trkpt>
      <trkpt lat="44.3764" lon="4.81378">
        <ele>257.3</ele>
        <time>2021-01-12T14:14:59Z</time>
      </trkpt>
      <trkpt lat="44.37627" lon="4.81364">
        <ele>256.03</ele>
        <time>2021-01-12T14:15:14Z</time>
      </trkpt>
      <trkpt lat="44.37621" lon="4.81358">
        <ele>255.57</ele>
        <time>2021-01-12T14:15:21Z</time>
      </trkpt>
      <trkpt lat="44.37619" lon="4.81358">
        <ele>255.37</ele>
        <time>2021-01-12T14:15:23Z</time>
      </trkpt>
      <trkpt lat="44.37607" lon="4.81345">
        <ele>254.14</ele>
        <time>2021-01-12T14:15:35Z</time>
      </trkpt>
      <trkpt lat="44.376" lon="4.81337">
        <ele>253.25</ele>
        <time>2021-01-12T14:15:51Z</time>
      </trkpt>
      <trkpt lat="44.37583" lon="4.81322">
        <ele>253.24</ele>
        <time>2021-01-12T14:16:12Z</time>
      </trkpt>
      <trkpt lat="44.37568" lon="4.81308">
        <ele>253.2</ele>
        <time>2021-01-12T14:16:24Z</time>
      </trkpt>
      <trkpt lat="44.37547" lon="4.81287">
        <ele>253.46</ele>
        <time>2021-01-12T14:16:39Z</time>
      </trkpt>
      <trkpt lat="44.3753" lon="4.81259">
        <ele>253.6</ele>
        <time>2021-01-12T14:16:55Z</time>
      </trkpt>
      <trkpt lat="44.37515" lon="4.81233">
        <ele>253.8</ele>
        <time>2021-01-12T14:17:12Z</time>
      </trkpt>
      <trkpt lat="44.37502" lon="4.81212">
        <ele>254.02</ele>
        <time>2021-01-12T14:17:27Z</time>
      </trkpt>
      <trkpt lat="44.37499" lon="4.81199">
        <ele>254.06</ele>
        <time>2021-01-12T14:17:39Z</time>
      </trkpt>
      <trkpt lat="44.375" lon="4.81193">
        <ele>254.2</ele>
        <time>2021-01-12T14:17:55Z</time>
      </trkpt>
      <trkpt lat="44.375" lon="4.81192">
        <ele>254.24</ele>
        <time>2021-01-12T14:17:56Z</time>
      </trkpt>
      <trkpt lat="44.37502" lon="4.81184">
        <ele>253.89</ele>
        <time>2021-01-12T14:18:01Z</time>
      </trkpt>
      <trkpt lat="44.37501" lon="4.81172">
        <ele>253.86</ele>
        <time>2021-01-12T14:18:08Z</time>
      </trkpt>
      <trkpt lat="44.37497" lon="4.81159">
        <ele>252.97</ele>
        <time>2021-01-12T14:18:25Z</time>
      </trkpt>
      <trkpt lat="44.37492" lon="4.81163">
        <ele>253.58</ele>
        <time>2021-01-12T14:18:32Z</time>
      </trkpt>
      <trkpt lat="44.37486" lon="4.81161">
        <ele>254.48</ele>
        <time>2021-01-12T14:18:47Z</time>
      </trkpt>
      <trkpt lat="44.37486" lon="4.81155">
        <ele>254.64</ele>
        <time>2021-01-12T14:19:20Z</time>
      </trkpt>
      <trkpt lat="44.37483" lon="4.81147">
        <ele>254.44</ele>
        <time>2021-01-12T14:19:26Z</time>
      </trkpt>
      <trkpt lat="44.37479" lon="4.81141">
        <ele>253.94</ele>
        <time>2021-01-12T14:19:32Z</time>
      </trkpt>
      <trkpt lat="44.37477" lon="4.81127">
        <ele>254.59</ele>
        <time>2021-01-12T14:19:45Z</time>
      </trkpt>
      <trkpt lat="44.37476" lon="4.81119">
        <ele>254.34</ele>
        <time>2021-01-12T14:19:50Z</time>
      </trkpt>
      <trkpt lat="44.37472" lon="4.81111">
        <ele>254.19</ele>
        <time>2021-01-12T14:19:56Z</time>
      </trkpt>
      <trkpt lat="44.37462" lon="4.81104">
        <ele>254.5</ele>
        <time>2021-01-12T14:20:07Z</time>
      </trkpt>
      <trkpt lat="44.37442" lon="4.81088">
        <ele>254.42</ele>
        <time>2021-01-12T14:20:24Z</time>
      </trkpt>
      <trkpt lat="44.3744" lon="4.81085">
        <ele>254.31</ele>
        <time>2021-01-12T14:20:26Z</time>
      </trkpt>
      <trkpt lat="44.37426" lon="4.8107">
        <ele>253.1</ele>
        <time>2021-01-12T14:20:42Z</time>
      </trkpt>
      <trkpt lat="44.37417" lon="4.81061">
        <ele>252.29</ele>
        <time>2021-01-12T14:20:52Z</time>
      </trkpt>
      <trkpt lat="44.37413" lon="4.81043">
        <ele>251.34</ele>
        <time>2021-01-12T14:21:08Z</time>
      </trkpt>
      <trkpt lat="44.37411" lon="4.81034">
        <ele>251.45</ele>
        <time>2021-01-12T14:21:25Z</time>
      </trkpt>
      <trkpt lat="44.37406" lon="4.81027">
        <ele>251.62</ele>
        <time>2021-01-12T14:21:39Z</time>
      </trkpt>
      <trkpt lat="44.37397" lon="4.81012">
        <ele>252.33</ele>
        <time>2021-01-12T14:21:54Z</time>
      </trkpt>
      <trkpt lat="44.37394" lon="4.81005">
        <ele>252.88</ele>
        <time>2021-01-12T14:22:03Z</time>
      </trkpt>
      <trkpt lat="44.37386" lon="4.80991">
        <ele>252.57</ele>
        <time>2021-01-12T14:22:15Z</time>
      </trkpt>
      <trkpt lat="44.37383" lon="4.80988">
        <ele>252.32</ele>
        <time>2021-01-12T14:22:18Z</time>
      </trkpt>
      <trkpt lat="44.37378" lon="4.80983">
        <ele>252.18</ele>
        <time>2021-01-12T14:22:22Z</time>
      </trkpt>
      <trkpt lat="44.37362" lon="4.80963">
        <ele>250.87</ele>
        <time>2021-01-12T14:22:37Z</time>
      </trkpt>
      <trkpt lat="44.37359" lon="4.80959">
        <ele>250.64</ele>
        <time>2021-01-12T14:22:41Z</time>
      </trkpt>
      <trkpt lat="44.37356" lon="4.8095">
        <ele>250.29</ele>
        <time>2021-01-12T14:22:46Z</time>
      </trkpt>
      <trkpt lat="44.37337" lon="4.80925">
        <ele>249.8</ele>
        <time>2021-01-12T14:23:06Z</time>
      </trkpt>
      <trkpt lat="44.37322" lon="4.80921">
        <ele>249.4</ele>
        <time>2021-01-12T14:23:20Z</time>
      </trkpt>
      <trkpt lat="44.37318" lon="4.80922">
        <ele>249</ele>
        <time>2021-01-12T14:23:23Z</time>
      </trkpt>
      <trkpt lat="44.37304" lon="4.80921">
        <ele>248</ele>
        <time>2021-01-12T14:23:36Z</time>
      </trkpt>
      <trkpt lat="44.37296" lon="4.80918">
        <ele>248.1</ele>
        <time>2021-01-12T14:23:43Z</time>
      </trkpt>
      <trkpt lat="44.37294" lon="4.80914">
        <ele>248.1</ele>
        <time>2021-01-12T14:23:46Z</time>
      </trkpt>
      <trkpt lat="44.37278" lon="4.80909">
        <ele>247.9</ele>
        <time>2021-01-12T14:24:01Z</time>
      </trkpt>
      <trkpt lat="44.37267" lon="4.80908">
        <ele>246.83</ele>
        <time>2021-01-12T14:24:13Z</time>
      </trkpt>
      <trkpt lat="44.37261" lon="4.80902">
        <ele>245.24</ele>
        <time>2021-01-12T14:24:20Z</time>
      </trkpt>
      <trkpt lat="44.37253" lon="4.80894">
        <ele>244.24</ele>
        <time>2021-01-12T14:24:28Z</time>
      </trkpt>
      <trkpt lat="44.37241" lon="4.80886">
        <ele>243.45</ele>
        <time>2021-01-12T14:24:43Z</time>
      </trkpt>
      <trkpt lat="44.3723" lon="4.80887">
        <ele>242.34</ele>
        <time>2021-01-12T14:24:54Z</time>
      </trkpt>
      <trkpt lat="44.37217" lon="4.80873">
        <ele>240.21</ele>
        <time>2021-01-12T14:25:08Z</time>
      </trkpt>
      <trkpt lat="44.37214" lon="4.80867">
        <ele>239.85</ele>
        <time>2021-01-12T14:25:12Z</time>
      </trkpt>
      <trkpt lat="44.37202" lon="4.80854">
        <ele>239.01</ele>
        <time>2021-01-12T14:25:23Z</time>
      </trkpt>
      <trkpt lat="44.37197" lon="4.8084">
        <ele>239.15</ele>
        <time>2021-01-12T14:25:39Z</time>
      </trkpt>
      <trkpt lat="44.37194" lon="4.80836">
        <ele>238.93</ele>
        <time>2021-01-12T14:25:59Z</time>
      </trkpt>
      <trkpt lat="44.37194" lon="4.80836">
        <ele>239.12</ele>
        <time>2021-01-12T14:26:04Z</time>
      </trkpt>
    </trkseg>
  </trk>
</gpx>